2016 Cux-Wetter.de -Die Nutzung der Wetterdaten nur mit ausdrcklicher Genehmigung
Wetterdaten: Dienstag, 04.07.2017
Datum Zeit Temp. A. Feuchte A. Luftdruck Regen Wind Richtung Richtung Sonnenschein Solar Taupunkt Windchill Windben
04.07.2017 00:00 15,8 C 84 % 1015,4 hPa 0,0 l/m 11,4 km/h (2 Bft) NW 317 0 min 0 W/m 13,1 C 13,4 C 20,9 km/h (4 Bft)
04.07.2017 00:03 15,8 C 84 % 1015,4 hPa 0,0 l/m 12,8 km/h (3 Bft) W-NW 290 0 min 0 W/m 13,1 C 12,9 C 22,5 km/h (4 Bft)
04.07.2017 00:06 15,8 C 84 % 1015,5 hPa 0,0 l/m 15,1 km/h (3 Bft) W-SW 241 0 min 0 W/m 13,1 C 12,1 C 33,8 km/h (5 Bft)
04.07.2017 00:09 15,8 C 85 % 1015,6 hPa 1,2 l/m 16,0 km/h (3 Bft) W-SW 256 0 min 0 W/m 13,3 C 11,9 C 29,0 km/h (5 Bft)
04.07.2017 00:12 15,6 C 85 % 1015,6 hPa 0,0 l/m 11,9 km/h (2 Bft) NW 311 0 min 0 W/m 13,1 C 13,0 C 27,4 km/h (5 Bft)
04.07.2017 00:15 15,4 C 86 % 1015,6 hPa 0,0 l/m 8,4 km/h (2 Bft) NW 316 0 min 0 W/m 13,1 C 14,3 C 22,5 km/h (4 Bft)
04.07.2017 00:18 15,2 C 87 % 1015,6 hPa 0,0 l/m 8,8 km/h (2 Bft) W 281 0 min 0 W/m 13,0 C 13,9 C 19,3 km/h (3 Bft)
04.07.2017 00:21 15,1 C 88 % 1015,6 hPa 0,0 l/m 6,6 km/h (2 Bft) W-SW 253 0 min 0 W/m 13,1 C 15,0 C 16,1 km/h (3 Bft)
04.07.2017 00:24 15,0 C 89 % 1015,6 hPa 0,0 l/m 6,5 km/h (2 Bft) W 262 0 min 0 W/m 13,2 C 15,0 C 16,1 km/h (3 Bft)
04.07.2017 00:27 14,9 C 89 % 1015,6 hPa 0,0 l/m 7,3 km/h (2 Bft) NW 306 0 min 0 W/m 13,1 C 14,4 C 14,5 km/h (3 Bft)
04.07.2017 00:30 14,8 C 89 % 1015,6 hPa 0,0 l/m 11,5 km/h (2 Bft) N 360 0 min 0 W/m 13,0 C 12,2 C 24,1 km/h (4 Bft)
04.07.2017 00:33 14,6 C 89 % 1015,6 hPa 0,0 l/m 9,2 km/h (2 Bft) N-NW 343 0 min 0 W/m 12,8 C 13,1 C 20,9 km/h (4 Bft)
04.07.2017 00:36 14,5 C 89 % 1015,6 hPa 0,0 l/m 8,3 km/h (2 Bft) W 279 0 min 0 W/m 12,7 C 13,4 C 20,9 km/h (4 Bft)
04.07.2017 00:39 14,4 C 90 % 1015,7 hPa 0,0 l/m 11,2 km/h (2 Bft) W 272 0 min 0 W/m 12,8 C 11,9 C 25,7 km/h (4 Bft)
04.07.2017 00:42 14,3 C 90 % 1015,6 hPa 0,0 l/m 9,9 km/h (2 Bft) W-SW 244 0 min 0 W/m 12,7 C 12,4 C 19,3 km/h (3 Bft)
04.07.2017 00:45 14,2 C 90 % 1015,7 hPa 0,0 l/m 11,8 km/h (2 Bft) W-NW 291 0 min 0 W/m 12,6 C 11,4 C 20,9 km/h (4 Bft)
04.07.2017 00:48 14,2 C 90 % 1015,6 hPa 0,0 l/m 7,8 km/h (2 Bft) W 275 0 min 0 W/m 12,6 C 13,4 C 19,3 km/h (3 Bft)
04.07.2017 00:51 14,1 C 90 % 1015,6 hPa 0,0 l/m 11,3 km/h (2 Bft) NW 319 0 min 0 W/m 12,5 C 11,5 C 22,5 km/h (4 Bft)
04.07.2017 00:54 14,1 C 90 % 1015,7 hPa 0,0 l/m 13,8 km/h (3 Bft) W 263 0 min 0 W/m 12,5 C 10,5 C 22,5 km/h (4 Bft)
04.07.2017 00:57 13,9 C 90 % 1015,6 hPa 0,0 l/m 12,9 km/h (3 Bft) W 278 0 min 0 W/m 12,3 C 10,6 C 20,9 km/h (4 Bft)
04.07.2017 01:00 13,8 C 90 % 1015,6 hPa 0,0 l/m 12,2 km/h (2 Bft) W 267 0 min 0 W/m 12,2 C 10,8 C 25,7 km/h (4 Bft)
04.07.2017 01:03 13,8 C 90 % 1015,7 hPa 0,0 l/m 11,6 km/h (2 Bft) N-NO 17 0 min 0 W/m 12,2 C 11,1 C 27,4 km/h (5 Bft)
04.07.2017 01:06 13,8 C 89 % 1015,7 hPa 0,0 l/m 12,4 km/h (2 Bft) W-NW 288 0 min 0 W/m 12,0 C 10,7 C 22,5 km/h (4 Bft)
04.07.2017 01:09 13,8 C 89 % 1015,6 hPa 0,0 l/m 11,4 km/h (2 Bft) W-NW 302 0 min 0 W/m 12,0 C 11,1 C 29,0 km/h (5 Bft)
04.07.2017 01:12 13,7 C 89 % 1015,6 hPa 0,0 l/m 12,8 km/h (3 Bft) NW 319 0 min 0 W/m 11,9 C 10,4 C 29,0 km/h (5 Bft)
04.07.2017 01:15 13,7 C 88 % 1015,7 hPa 0,0 l/m 9,3 km/h (2 Bft) W-NW 296 0 min 0 W/m 11,7 C 12,0 C 17,7 km/h (3 Bft)
04.07.2017 01:18 13,8 C 88 % 1015,7 hPa 0,0 l/m 11,5 km/h (2 Bft) W-NW 291 0 min 0 W/m 11,8 C 11,1 C 24,1 km/h (4 Bft)
04.07.2017 01:21 13,8 C 88 % 1015,7 hPa 0,0 l/m 12,0 km/h (2 Bft) W 269 0 min 0 W/m 11,8 C 10,9 C 25,7 km/h (4 Bft)
04.07.2017 01:24 13,8 C 88 % 1015,7 hPa 0,0 l/m 10,1 km/h (2 Bft) NW 323 0 min 0 W/m 11,8 C 11,7 C 29,0 km/h (5 Bft)
04.07.2017 01:27 13,9 C 88 % 1015,7 hPa 0,0 l/m 9,2 km/h (2 Bft) W-NW 288 0 min 0 W/m 11,9 C 12,3 C 17,7 km/h (3 Bft)
04.07.2017 01:30 13,9 C 88 % 1015,7 hPa 0,0 l/m 10,5 km/h (2 Bft) N-NW 333 0 min 0 W/m 11,9 C 11,7 C 22,5 km/h (4 Bft)
04.07.2017 01:33 13,8 C 87 % 1015,8 hPa 0,0 l/m 12,3 km/h (2 Bft) W-NW 285 0 min 0 W/m 11,7 C 10,8 C 25,7 km/h (4 Bft)
04.07.2017 01:36 13,7 C 87 % 1015,7 hPa 0,0 l/m 10,5 km/h (2 Bft) N-NW 336 0 min 0 W/m 11,6 C 11,4 C 22,5 km/h (4 Bft)
04.07.2017 01:39 13,7 C 87 % 1015,7 hPa 0,0 l/m 10,1 km/h (2 Bft) NW 311 0 min 0 W/m 11,6 C 11,6 C 19,3 km/h (3 Bft)
04.07.2017 01:42 13,7 C 86 % 1015,7 hPa 0,0 l/m 11,2 km/h (2 Bft) W 260 0 min 0 W/m 11,4 C 11,1 C 24,1 km/h (4 Bft)
04.07.2017 01:45 13,7 C 86 % 1015,7 hPa 0,0 l/m 8,9 km/h (2 Bft) NW 313 0 min 0 W/m 11,4 C 12,2 C 20,9 km/h (4 Bft)
04.07.2017 01:48 13,7 C 86 % 1015,7 hPa 0,0 l/m 10,1 km/h (2 Bft) W 281 0 min 0 W/m 11,4 C 11,6 C 19,3 km/h (3 Bft)
04.07.2017 01:51 13,6 C 86 % 1015,7 hPa 0,0 l/m 6,2 km/h (2 Bft) NW 325 0 min 0 W/m 11,3 C 13,6 C 19,3 km/h (3 Bft)
04.07.2017 01:54 13,6 C 86 % 1015,7 hPa 0,0 l/m 4,4 km/h (1 Bft) W-SW 257 0 min 0 W/m 11,3 C 13,6 C 12,9 km/h (3 Bft)
04.07.2017 01:57 13,6 C 86 % 1015,8 hPa 0,0 l/m 8,8 km/h (2 Bft) NW 319 0 min 0 W/m 11,3 C 12,2 C 20,9 km/h (4 Bft)
04.07.2017 02:00 13,6 C 85 % 1015,8 hPa 0,0 l/m 10,8 km/h (2 Bft) W-SW 246 0 min 0 W/m 11,1 C 11,2 C 20,9 km/h (4 Bft)
04.07.2017 02:03 13,5 C 85 % 1015,8 hPa 0,0 l/m 9,4 km/h (2 Bft) W-NW 283 0 min 0 W/m 11,0 C 11,8 C 20,9 km/h (4 Bft)
04.07.2017 02:06 13,5 C 85 % 1015,8 hPa 0,0 l/m 9,5 km/h (2 Bft) W-NW 288 0 min 0 W/m 11,0 C 11,7 C 19,3 km/h (3 Bft)
04.07.2017 02:09 13,4 C 84 % 1015,8 hPa 0,0 l/m 10,5 km/h (2 Bft) W-NW 289 0 min 0 W/m 10,8 C 11,1 C 20,9 km/h (4 Bft)
04.07.2017 02:12 13,4 C 84 % 1015,8 hPa 0,0 l/m 7,9 km/h (2 Bft) W-NW 290 0 min 0 W/m 10,8 C 12,5 C 19,3 km/h (3 Bft)
04.07.2017 02:15 13,4 C 84 % 1015,8 hPa 0,0 l/m 7,0 km/h (2 Bft) SW 227 0 min 0 W/m 10,8 C 13,0 C 14,5 km/h (3 Bft)
04.07.2017 02:18 13,4 C 84 % 1015,8 hPa 0,0 l/m 11,5 km/h (2 Bft) NW 309 0 min 0 W/m 10,8 C 10,6 C 22,5 km/h (4 Bft)
04.07.2017 02:21 13,4 C 83 % 1015,8 hPa 0,0 l/m 9,3 km/h (2 Bft) W 269 0 min 0 W/m 10,6 C 11,7 C 20,9 km/h (4 Bft)
04.07.2017 02:24 13,4 C 83 % 1015,9 hPa 0,0 l/m 10,8 km/h (2 Bft) W 264 0 min 0 W/m 10,6 C 11,0 C 25,7 km/h (4 Bft)
04.07.2017 02:27 13,4 C 83 % 1015,9 hPa 0,0 l/m 9,6 km/h (2 Bft) W-NW 294 0 min 0 W/m 10,6 C 11,6 C 19,3 km/h (3 Bft)
04.07.2017 02:30 13,4 C 82 % 1015,9 hPa 0,0 l/m 9,9 km/h (2 Bft) N 351 0 min 0 W/m 10,4 C 11,4 C 20,9 km/h (4 Bft)
04.07.2017 02:33 13,4 C 82 % 1015,9 hPa 0,0 l/m 9,9 km/h (2 Bft) W 278 0 min 0 W/m 10,4 C 11,4 C 24,1 km/h (4 Bft)
04.07.2017 02:36 13,4 C 82 % 1015,8 hPa 0,0 l/m 9,4 km/h (2 Bft) W 273 0 min 0 W/m 10,4 C 11,7 C 17,7 km/h (3 Bft)
04.07.2017 02:39 13,5 C 82 % 1015,9 hPa 0,0 l/m 10,6 km/h (2 Bft) W-NW 286 0 min 0 W/m 10,5 C 11,2 C 25,7 km/h (4 Bft)
04.07.2017 02:42 13,6 C 83 % 1015,9 hPa 0,0 l/m 8,8 km/h (2 Bft) N-NW 331 0 min 0 W/m 10,8 C 12,2 C 19,3 km/h (3 Bft)
04.07.2017 02:45 13,6 C 82 % 1015,9 hPa 0,0 l/m 8,8 km/h (2 Bft) W 275 0 min 0 W/m 10,6 C 12,2 C 20,9 km/h (4 Bft)
04.07.2017 02:48 13,5 C 82 % 1016,0 hPa 0,0 l/m 9,5 km/h (2 Bft) W 277 0 min 0 W/m 10,5 C 11,7 C 24,1 km/h (4 Bft)
04.07.2017 02:51 13,4 C 81 % 1015,9 hPa 0,0 l/m 9,3 km/h (2 Bft) W-NW 298 0 min 0 W/m 10,2 C 11,7 C 20,9 km/h (4 Bft)
04.07.2017 02:54 13,4 C 81 % 1016,0 hPa 0,0 l/m 10,3 km/h (2 Bft) W-NW 286 0 min 0 W/m 10,2 C 11,2 C 20,9 km/h (4 Bft)
04.07.2017 02:57 13,4 C 81 % 1016,1 hPa 0,0 l/m 6,2 km/h (2 Bft) NW 315 0 min 0 W/m 10,2 C 13,4 C 14,5 km/h (3 Bft)
04.07.2017 03:00 13,4 C 81 % 1016,1 hPa 0,0 l/m 9,0 km/h (2 Bft) NW 304 0 min 0 W/m 10,2 C 11,9 C 22,5 km/h (4 Bft)
04.07.2017 03:03 13,4 C 81 % 1016,1 hPa 0,0 l/m 5,9 km/h (2 Bft) W-SW 257 0 min 0 W/m 10,2 C 13,4 C 14,5 km/h (3 Bft)
04.07.2017 03:06 13,3 C 81 % 1016,0 hPa 0,0 l/m 7,0 km/h (2 Bft) W 260 0 min 0 W/m 10,1 C 12,9 C 14,5 km/h (3 Bft)
04.07.2017 03:09 13,4 C 81 % 1016,1 hPa 0,0 l/m 7,6 km/h (2 Bft) W 275 0 min 0 W/m 10,2 C 12,7 C 19,3 km/h (3 Bft)
04.07.2017 03:12 13,3 C 81 % 1016,0 hPa 0,0 l/m 9,4 km/h (2 Bft) W 274 0 min 0 W/m 10,1 C 11,5 C 19,3 km/h (3 Bft)
04.07.2017 03:15 13,3 C 80 % 1016,0 hPa 0,0 l/m 9,5 km/h (2 Bft) W-SW 250 0 min 0 W/m 9,9 C 11,5 C 22,5 km/h (4 Bft)
04.07.2017 03:18 13,3 C 79 % 1016,0 hPa 0,0 l/m 9,2 km/h (2 Bft) NW 314 0 min 0 W/m 9,7 C 11,7 C 22,5 km/h (4 Bft)
04.07.2017 03:21 13,3 C 79 % 1016,1 hPa 0,0 l/m 9,7 km/h (2 Bft) W-SW 257 0 min 0 W/m 9,7 C 11,4 C 20,9 km/h (4 Bft)
04.07.2017 03:24 13,3 C 79 % 1016,0 hPa 0,0 l/m 10,9 km/h (2 Bft) W 267 0 min 0 W/m 9,7 C 10,8 C 19,3 km/h (3 Bft)
04.07.2017 03:27 13,3 C 80 % 1016,0 hPa 0,0 l/m 9,6 km/h (2 Bft) W 269 0 min 0 W/m 9,9 C 11,4 C 17,7 km/h (3 Bft)
04.07.2017 03:30 13,3 C 80 % 1016,1 hPa 0,0 l/m 7,4 km/h (2 Bft) W-SW 248 0 min 0 W/m 9,9 C 12,7 C 17,7 km/h (3 Bft)
04.07.2017 03:33 13,3 C 80 % 1016,1 hPa 0,0 l/m 9,5 km/h (2 Bft) W-NW 290 0 min 0 W/m 9,9 C 11,5 C 17,7 km/h (3 Bft)
04.07.2017 03:36 13,3 C 80 % 1016,1 hPa 0,0 l/m 7,3 km/h (2 Bft) W-SW 246 0 min 0 W/m 9,9 C 12,7 C 14,5 km/h (3 Bft)
04.07.2017 03:39 13,2 C 80 % 1016,1 hPa 0,0 l/m 6,8 km/h (2 Bft) W 267 0 min 0 W/m 9,8 C 13,0 C 16,1 km/h (3 Bft)
04.07.2017 03:42 13,2 C 81 % 1016,1 hPa 0,0 l/m 8,8 km/h (2 Bft) W-NW 293 0 min 0 W/m 10,0 C 11,8 C 17,7 km/h (3 Bft)
04.07.2017 03:45 13,2 C 81 % 1016,2 hPa 0,0 l/m 8,7 km/h (2 Bft) NW 313 0 min 0 W/m 10,0 C 11,8 C 17,7 km/h (3 Bft)
04.07.2017 03:48 13,2 C 81 % 1016,2 hPa 0,0 l/m 8,2 km/h (2 Bft) W 267 0 min 0 W/m 10,0 C 12,1 C 12,9 km/h (3 Bft)
04.07.2017 03:51 13,2 C 80 % 1016,2 hPa 0,0 l/m 9,9 km/h (2 Bft) W-NW 288 0 min 0 W/m 9,8 C 11,2 C 19,3 km/h (3 Bft)
04.07.2017 03:54 13,2 C 80 % 1016,2 hPa 0,0 l/m 8,7 km/h (2 Bft) NW 313 0 min 0 W/m 9,8 C 11,8 C 17,7 km/h (3 Bft)
04.07.2017 03:57 13,2 C 80 % 1016,2 hPa 0,0 l/m 6,5 km/h (2 Bft) W-NW 302 0 min 0 W/m 9,8 C 13,2 C 19,3 km/h (3 Bft)
04.07.2017 04:00 13,2 C 80 % 1016,2 hPa 0,0 l/m 9,6 km/h (2 Bft) W-NW 294 0 min 0 W/m 9,8 C 11,3 C 16,1 km/h (3 Bft)
04.07.2017 04:03 13,2 C 80 % 1016,2 hPa 0,0 l/m 9,3 km/h (2 Bft) NW 309 0 min 0 W/m 9,8 C 11,5 C 17,7 km/h (3 Bft)
04.07.2017 04:06 13,2 C 80 % 1016,2 hPa 0,0 l/m 7,3 km/h (2 Bft) W-NW 296 0 min 0 W/m 9,8 C 12,6 C 16,1 km/h (3 Bft)
04.07.2017 04:09 13,2 C 80 % 1016,2 hPa 0,0 l/m 6,3 km/h (2 Bft) W-NW 297 0 min 0 W/m 9,8 C 13,2 C 12,9 km/h (3 Bft)
04.07.2017 04:12 13,2 C 80 % 1016,1 hPa 0,0 l/m 9,5 km/h (2 Bft) W 261 0 min 0 W/m 9,8 C 11,4 C 17,7 km/h (3 Bft)
04.07.2017 04:15 13,1 C 80 % 1016,2 hPa 0,0 l/m 10,2 km/h (2 Bft) W-NW 300 0 min 0 W/m 9,7 C 10,9 C 17,7 km/h (3 Bft)
04.07.2017 04:18 13,1 C 80 % 1016,2 hPa 0,0 l/m 7,7 km/h (2 Bft) W-NW 284 0 min 0 W/m 9,7 C 12,3 C 17,7 km/h (3 Bft)
04.07.2017 04:21 13,1 C 80 % 1016,2 hPa 0,0 l/m 6,7 km/h (2 Bft) W-SW 251 0 min 0 W/m 9,7 C 12,9 C 14,5 km/h (3 Bft)
04.07.2017 04:24 13,1 C 80 % 1016,2 hPa 0,0 l/m 8,4 km/h (2 Bft) W 278 0 min 0 W/m 9,7 C 11,9 C 17,7 km/h (3 Bft)
04.07.2017 04:27 13,2 C 80 % 1016,2 hPa 0,0 l/m 11,4 km/h (2 Bft) W-SW 245 0 min 0 W/m 9,8 C 10,5 C 24,1 km/h (4 Bft)
04.07.2017 04:30 13,2 C 80 % 1016,2 hPa 0,0 l/m 10,1 km/h (2 Bft) W 273 0 min 0 W/m 9,8 C 11,1 C 20,9 km/h (4 Bft)
04.07.2017 04:33 13,2 C 80 % 1016,3 hPa 0,0 l/m 8,2 km/h (2 Bft) W-SW 242 0 min 0 W/m 9,8 C 12,1 C 16,1 km/h (3 Bft)
04.07.2017 04:36 13,2 C 80 % 1016,3 hPa 0,0 l/m 10,0 km/h (2 Bft) NW 311 0 min 0 W/m 9,8 C 11,1 C 19,3 km/h (3 Bft)
04.07.2017 04:39 13,2 C 79 % 1016,3 hPa 0,0 l/m 7,9 km/h (2 Bft) W 281 0 min 0 W/m 9,6 C 12,3 C 17,7 km/h (3 Bft)
04.07.2017 04:42 13,2 C 79 % 1016,3 hPa 0,0 l/m 6,6 km/h (2 Bft) W-NW 286 0 min 0 W/m 9,6 C 13,1 C 14,5 km/h (3 Bft)
04.07.2017 04:45 13,2 C 80 % 1016,3 hPa 0,0 l/m 6,7 km/h (2 Bft) W 269 0 min 0 W/m 9,8 C 13,0 C 16,1 km/h (3 Bft)
04.07.2017 04:48 13,2 C 79 % 1016,3 hPa 0,0 l/m 6,3 km/h (2 Bft) W 259 0 min 0 W/m 9,6 C 13,2 C 14,5 km/h (3 Bft)
04.07.2017 04:51 13,1 C 79 % 1016,4 hPa 0,0 l/m 8,8 km/h (2 Bft) W 268 0 min 0 W/m 9,5 C 11,7 C 17,7 km/h (3 Bft)
04.07.2017 04:54 13,1 C 79 % 1016,4 hPa 0,0 l/m 8,2 km/h (2 Bft) W-NW 286 0 min 0 W/m 9,5 C 12,0 C 19,3 km/h (3 Bft)
04.07.2017 04:57 13,2 C 79 % 1016,4 hPa 0,0 l/m 8,9 km/h (2 Bft) W-SW 258 0 min 0 W/m 9,6 C 11,7 C 16,1 km/h (3 Bft)
04.07.2017 05:00 13,2 C 80 % 1016,4 hPa 0,0 l/m 7,2 km/h (2 Bft) W 276 0 min 0 W/m 9,8 C 12,7 C 16,1 km/h (3 Bft)
04.07.2017 05:03 13,2 C 80 % 1016,5 hPa 0,0 l/m 9,2 km/h (2 Bft) W 279 0 min 0 W/m 9,8 C 11,5 C 17,7 km/h (3 Bft)
04.07.2017 05:06 13,3 C 80 % 1016,5 hPa 0,0 l/m 8,3 km/h (2 Bft) W 276 0 min 0 W/m 9,9 C 12,1 C 20,9 km/h (4 Bft)
04.07.2017 05:09 13,3 C 80 % 1016,5 hPa 0,0 l/m 7,7 km/h (2 Bft) W 281 0 min 0 W/m 9,9 C 12,5 C 17,7 km/h (3 Bft)
04.07.2017 05:12 13,4 C 80 % 1016,5 hPa 0,0 l/m 9,0 km/h (2 Bft) W 277 0 min 0 W/m 10,0 C 11,9 C 16,1 km/h (3 Bft)
04.07.2017 05:15 13,5 C 81 % 1016,5 hPa 0,0 l/m 9,4 km/h (2 Bft) W 266 0 min 0 W/m 10,3 C 11,8 C 17,7 km/h (3 Bft)
04.07.2017 05:18 13,6 C 81 % 1016,5 hPa 0,0 l/m 4,3 km/h (1 Bft) W 259 0 min 5 W/m 10,4 C 13,6 C 11,3 km/h (2 Bft)
04.07.2017 05:21 13,6 C 81 % 1016,5 hPa 0,0 l/m 7,3 km/h (2 Bft) W 276 0 min 7 W/m 10,4 C 13,0 C 17,7 km/h (3 Bft)
04.07.2017 05:24 13,6 C 81 % 1016,5 hPa 0,0 l/m 9,6 km/h (2 Bft) NW 317 0 min 9 W/m 10,4 C 11,8 C 20,9 km/h (4 Bft)
04.07.2017 05:27 13,6 C 81 % 1016,5 hPa 0,0 l/m 7,5 km/h (2 Bft) NW 304 0 min 5 W/m 10,4 C 12,9 C 19,3 km/h (3 Bft)
04.07.2017 05:30 13,6 C 81 % 1016,5 hPa 0,0 l/m 6,3 km/h (2 Bft) W-NW 300 0 min 5 W/m 10,4 C 13,6 C 16,1 km/h (3 Bft)
04.07.2017 05:33 13,6 C 80 % 1016,5 hPa 0,0 l/m 6,5 km/h (2 Bft) W 273 0 min 5 W/m 10,2 C 13,6 C 16,1 km/h (3 Bft)
04.07.2017 05:36 13,7 C 81 % 1016,5 hPa 0,0 l/m 7,6 km/h (2 Bft) NW 308 0 min 5 W/m 10,5 C 13,0 C 16,1 km/h (3 Bft)
04.07.2017 05:39 13,7 C 81 % 1016,5 hPa 0,0 l/m 7,4 km/h (2 Bft) W 268 0 min 5 W/m 10,5 C 13,1 C 17,7 km/h (3 Bft)
04.07.2017 05:42 13,8 C 81 % 1016,5 hPa 0,0 l/m 7,8 km/h (2 Bft) N 355 0 min 7 W/m 10,6 C 13,0 C 14,5 km/h (3 Bft)
04.07.2017 05:45 13,8 C 81 % 1016,6 hPa 0,0 l/m 10,9 km/h (2 Bft) W 270 0 min 5 W/m 10,6 C 11,4 C 17,7 km/h (3 Bft)
04.07.2017 05:48 13,8 C 81 % 1016,6 hPa 0,0 l/m 10,5 km/h (2 Bft) S-SW 207 0 min 7 W/m 10,6 C 11,6 C 19,3 km/h (3 Bft)
04.07.2017 05:51 13,9 C 81 % 1016,6 hPa 0,0 l/m 7,5 km/h (2 Bft) W 273 0 min 11 W/m 10,7 C 13,2 C 16,1 km/h (3 Bft)
04.07.2017 05:54 13,9 C 82 % 1016,6 hPa 0,0 l/m 8,7 km/h (2 Bft) W-NW 288 0 min 16 W/m 10,9 C 12,6 C 16,1 km/h (3 Bft)
04.07.2017 05:57 13,9 C 82 % 1016,5 hPa 0,0 l/m 8,2 km/h (2 Bft) S-SW 192 0 min 16 W/m 10,9 C 12,8 C 16,1 km/h (3 Bft)
04.07.2017 06:00 13,9 C 81 % 1016,6 hPa 0,0 l/m 6,5 km/h (2 Bft) NW 309 0 min 21 W/m 10,7 C 13,9 C 17,7 km/h (3 Bft)
04.07.2017 06:03 13,9 C 80 % 1016,6 hPa 0,0 l/m 7,6 km/h (2 Bft) W 272 0 min 28 W/m 10,5 C 13,2 C 16,1 km/h (3 Bft)
04.07.2017 06:06 13,9 C 80 % 1016,6 hPa 0,0 l/m 7,7 km/h (2 Bft) W-SW 254 0 min 33 W/m 10,5 C 13,1 C 17,7 km/h (3 Bft)
04.07.2017 06:09 14,0 C 80 % 1016,6 hPa 0,0 l/m 7,1 km/h (2 Bft) W-NW 292 0 min 35 W/m 10,6 C 13,6 C 12,9 km/h (3 Bft)
04.07.2017 06:12 14,1 C 81 % 1016,6 hPa 0,0 l/m 5,6 km/h (2 Bft) W-NW 294 0 min 35 W/m 10,9 C 14,1 C 16,1 km/h (3 Bft)
04.07.2017 06:15 14,1 C 80 % 1016,6 hPa 0,0 l/m 6,7 km/h (2 Bft) W 274 0 min 32 W/m 10,7 C 13,9 C 16,1 km/h (3 Bft)
04.07.2017 06:18 14,1 C 80 % 1016,6 hPa 0,0 l/m 9,7 km/h (2 Bft) W 279 0 min 28 W/m 10,7 C 12,3 C 17,7 km/h (3 Bft)
04.07.2017 06:21 14,1 C 79 % 1016,6 hPa 0,0 l/m 8,6 km/h (2 Bft) W-NW 301 0 min 26 W/m 10,5 C 12,8 C 20,9 km/h (4 Bft)
04.07.2017 06:24 14,2 C 79 % 1016,6 hPa 0,0 l/m 8,3 km/h (2 Bft) W-NW 288 0 min 35 W/m 10,6 C 13,1 C 19,3 km/h (3 Bft)
04.07.2017 06:27 14,2 C 78 % 1016,6 hPa 0,0 l/m 8,4 km/h (2 Bft) W-NW 286 0 min 39 W/m 10,4 C 13,0 C 14,5 km/h (3 Bft)
04.07.2017 06:30 14,2 C 78 % 1016,7 hPa 0,0 l/m 10,0 km/h (2 Bft) NW 308 0 min 46 W/m 10,4 C 12,2 C 20,9 km/h (4 Bft)
04.07.2017 06:33 14,2 C 78 % 1016,7 hPa 0,0 l/m 11,2 km/h (2 Bft) W-NW 286 0 min 54 W/m 10,4 C 11,7 C 19,3 km/h (3 Bft)
04.07.2017 06:36 14,3 C 78 % 1016,7 hPa 0,0 l/m 11,5 km/h (2 Bft) W-NW 284 0 min 51 W/m 10,5 C 11,7 C 22,5 km/h (4 Bft)
04.07.2017 06:39 14,3 C 78 % 1016,8 hPa 0,0 l/m 9,4 km/h (2 Bft) W-NW 293 0 min 42 W/m 10,5 C 12,6 C 20,9 km/h (4 Bft)
04.07.2017 06:42 14,4 C 78 % 1016,8 hPa 0,0 l/m 6,5 km/h (2 Bft) NW 311 0 min 44 W/m 10,6 C 14,4 C 16,1 km/h (3 Bft)
04.07.2017 06:45 14,4 C 78 % 1016,8 hPa 0,0 l/m 9,9 km/h (2 Bft) W-NW 286 0 min 65 W/m 10,6 C 12,5 C 20,9 km/h (4 Bft)
04.07.2017 06:48 14,4 C 78 % 1016,8 hPa 0,0 l/m 10,8 km/h (2 Bft) N-NW 327 0 min 70 W/m 10,6 C 12,1 C 24,1 km/h (4 Bft)
04.07.2017 06:51 14,4 C 75 % 1016,7 hPa 0,0 l/m 10,0 km/h (2 Bft) W-NW 286 0 min 49 W/m 10,0 C 12,5 C 20,9 km/h (4 Bft)
04.07.2017 06:54 14,4 C 75 % 1016,7 hPa 0,0 l/m 9,6 km/h (2 Bft) W 261 0 min 25 W/m 10,0 C 12,6 C 17,7 km/h (3 Bft)
04.07.2017 06:57 14,4 C 74 % 1016,8 hPa 0,0 l/m 11,9 km/h (2 Bft) W 265 0 min 25 W/m 9,8 C 11,6 C 24,1 km/h (4 Bft)
04.07.2017 07:00 14,4 C 74 % 1016,7 hPa 0,0 l/m 8,5 km/h (2 Bft) SW 234 0 min 26 W/m 9,8 C 13,2 C 19,3 km/h (3 Bft)
04.07.2017 07:03 14,4 C 74 % 1016,8 hPa 0,0 l/m 8,1 km/h (2 Bft) W 271 0 min 28 W/m 9,8 C 13,4 C 16,1 km/h (3 Bft)
04.07.2017 07:06 14,4 C 74 % 1016,8 hPa 0,0 l/m 8,0 km/h (2 Bft) W-NW 284 0 min 42 W/m 9,8 C 13,5 C 19,3 km/h (3 Bft)
04.07.2017 07:09 14,4 C 74 % 1016,9 hPa 0,0 l/m 8,6 km/h (2 Bft) W-SW 248 0 min 51 W/m 9,8 C 13,1 C 19,3 km/h (3 Bft)
04.07.2017 07:12 14,5 C 72 % 1016,8 hPa 0,0 l/m 9,1 km/h (2 Bft) W-NW 289 0 min 44 W/m 9,5 C 13,0 C 19,3 km/h (3 Bft)
04.07.2017 07:15 14,6 C 71 % 1016,9 hPa 0,0 l/m 11,0 km/h (2 Bft) N-NW 328 0 min 30 W/m 9,4 C 12,2 C 19,3 km/h (3 Bft)
04.07.2017 07:18 14,6 C 72 % 1016,9 hPa 0,0 l/m 10,5 km/h (2 Bft) N 350 0 min 56 W/m 9,6 C 12,4 C 19,3 km/h (3 Bft)
04.07.2017 07:21 14,7 C 72 % 1016,9 hPa 0,0 l/m 10,8 km/h (2 Bft) SW 227 0 min 98 W/m 9,7 C 12,4 C 20,9 km/h (4 Bft)
04.07.2017 07:24 14,8 C 71 % 1016,9 hPa 0,0 l/m 11,0 km/h (2 Bft) W-SW 254 0 min 72 W/m 9,6 C 12,5 C 24,1 km/h (4 Bft)
04.07.2017 07:27 14,9 C 71 % 1016,9 hPa 0,0 l/m 9,6 km/h (2 Bft) NW 313 0 min 67 W/m 9,7 C 13,2 C 19,3 km/h (3 Bft)
04.07.2017 07:30 14,9 C 71 % 1017,0 hPa 0,0 l/m 9,7 km/h (2 Bft) NW 304 0 min 76 W/m 9,7 C 13,1 C 16,1 km/h (3 Bft)
04.07.2017 07:33 14,9 C 73 % 1017,0 hPa 0,0 l/m 9,2 km/h (2 Bft) W 268 0 min 72 W/m 10,1 C 13,4 C 20,9 km/h (4 Bft)
04.07.2017 07:36 14,9 C 73 % 1017,0 hPa 0,0 l/m 9,7 km/h (2 Bft) SW 234 0 min 63 W/m 10,1 C 13,1 C 20,9 km/h (4 Bft)
04.07.2017 07:39 14,9 C 73 % 1017,0 hPa 0,0 l/m 11,2 km/h (2 Bft) SW 233 0 min 60 W/m 10,1 C 12,5 C 25,7 km/h (4 Bft)
04.07.2017 07:42 14,9 C 73 % 1017,1 hPa 0,0 l/m 14,1 km/h (3 Bft) W-NW 288 0 min 62 W/m 10,1 C 11,4 C 25,7 km/h (4 Bft)
04.07.2017 07:45 14,8 C 73 % 1017,0 hPa 0,0 l/m 11,5 km/h (2 Bft) W 275 0 min 58 W/m 10,0 C 12,2 C 22,5 km/h (4 Bft)
04.07.2017 07:48 14,8 C 73 % 1017,1 hPa 0,0 l/m 13,6 km/h (3 Bft) W 276 0 min 63 W/m 10,0 C 11,4 C 27,4 km/h (5 Bft)
04.07.2017 07:51 14,8 C 73 % 1017,0 hPa 0,0 l/m 12,1 km/h (2 Bft) W-NW 288 0 min 86 W/m 10,0 C 12,0 C 19,3 km/h (3 Bft)
04.07.2017 07:54 14,9 C 75 % 1017,1 hPa 0,0 l/m 10,6 km/h (2 Bft) SW 223 0 min 88 W/m 10,5 C 12,7 C 24,1 km/h (4 Bft)
04.07.2017 07:57 14,9 C 75 % 1017,1 hPa 0,0 l/m 11,3 km/h (2 Bft) W 278 0 min 102 W/m 10,5 C 12,4 C 22,5 km/h (4 Bft)
04.07.2017 08:00 14,9 C 73 % 1017,1 hPa 0,0 l/m 11,4 km/h (2 Bft) NW 308 0 min 116 W/m 10,1 C 12,4 C 20,9 km/h (4 Bft)
04.07.2017 08:03 14,9 C 73 % 1017,2 hPa 0,0 l/m 9,5 km/h (2 Bft) W-NW 302 0 min 113 W/m 10,1 C 13,2 C 22,5 km/h (4 Bft)
04.07.2017 08:06 14,9 C 74 % 1017,2 hPa 0,0 l/m 9,8 km/h (2 Bft) NW 322 0 min 121 W/m 10,3 C 13,1 C 17,7 km/h (3 Bft)
04.07.2017 08:09 15,0 C 73 % 1017,2 hPa 0,0 l/m 10,9 km/h (2 Bft) W 264 0 min 169 W/m 10,2 C 12,7 C 24,1 km/h (4 Bft)
04.07.2017 08:12 15,3 C 73 % 1017,2 hPa 0,0 l/m 14,0 km/h (3 Bft) W-NW 286 0 min 199 W/m 10,5 C 11,9 C 25,7 km/h (4 Bft)
04.07.2017 08:15 15,4 C 72 % 1017,2 hPa 0,0 l/m 13,4 km/h (3 Bft) NW 311 0 min 156 W/m 10,4 C 12,2 C 24,1 km/h (4 Bft)
04.07.2017 08:18 15,4 C 70 % 1017,3 hPa 0,0 l/m 9,7 km/h (2 Bft) W 278 0 min 141 W/m 10,0 C 13,7 C 24,1 km/h (4 Bft)
04.07.2017 08:21 15,4 C 70 % 1017,3 hPa 0,0 l/m 11,4 km/h (2 Bft) NW 314 0 min 111 W/m 10,0 C 13,0 C 24,1 km/h (4 Bft)
04.07.2017 08:24 15,3 C 71 % 1017,3 hPa 0,0 l/m 11,4 km/h (2 Bft) W 267 0 min 139 W/m 10,1 C 12,9 C 20,9 km/h (4 Bft)
04.07.2017 08:27 15,4 C 71 % 1017,3 hPa 0,0 l/m 11,0 km/h (2 Bft) W-NW 289 3 min 253 W/m 10,2 C 13,1 C 24,1 km/h (4 Bft)
04.07.2017 08:30 15,6 C 70 % 1017,4 hPa 0,0 l/m 12,3 km/h (2 Bft) W 263 0 min 197 W/m 10,1 C 12,8 C 22,5 km/h (4 Bft)
04.07.2017 08:33 15,6 C 70 % 1017,5 hPa 0,0 l/m 13,7 km/h (3 Bft) W-SW 252 0 min 151 W/m 10,1 C 12,3 C 22,5 km/h (4 Bft)
04.07.2017 08:36 15,5 C 70 % 1017,5 hPa 0,0 l/m 13,9 km/h (3 Bft) W 269 0 min 160 W/m 10,1 C 12,2 C 29,0 km/h (5 Bft)
04.07.2017 08:39 15,4 C 71 % 1017,5 hPa 0,0 l/m 13,0 km/h (3 Bft) W 269 0 min 153 W/m 10,2 C 12,4 C 29,0 km/h (5 Bft)
04.07.2017 08:42 15,5 C 73 % 1017,5 hPa 0,0 l/m 10,5 km/h (2 Bft) NW 304 0 min 134 W/m 10,7 C 13,5 C 17,7 km/h (3 Bft)
04.07.2017 08:45 15,6 C 74 % 1017,5 hPa 0,0 l/m 9,2 km/h (2 Bft) S-SW 207 0 min 197 W/m 11,0 C 14,1 C 19,3 km/h (3 Bft)
04.07.2017 08:48 15,5 C 72 % 1017,6 hPa 0,0 l/m 11,9 km/h (2 Bft) W-SW 257 0 min 104 W/m 10,5 C 12,9 C 20,9 km/h (4 Bft)
04.07.2017 08:51 15,4 C 72 % 1017,6 hPa 0,0 l/m 10,5 km/h (2 Bft) W 271 3 min 526 W/m 10,4 C 13,3 C 22,5 km/h (4 Bft)
04.07.2017 08:54 15,7 C 72 % 1017,6 hPa 0,0 l/m 10,0 km/h (2 Bft) W-NW 296 3 min 606 W/m 10,7 C 13,9 C 22,5 km/h (4 Bft)
04.07.2017 08:57 15,9 C 72 % 1017,7 hPa 0,0 l/m 7,6 km/h (2 Bft) W-NW 286 0 min 229 W/m 10,9 C 15,3 C 16,1 km/h (3 Bft)
04.07.2017 09:00 15,9 C 70 % 1017,7 hPa 0,0 l/m 10,4 km/h (2 Bft) W 269 0 min 239 W/m 10,4 C 13,9 C 19,3 km/h (3 Bft)
04.07.2017 09:03 15,8 C 70 % 1017,7 hPa 0,0 l/m 10,0 km/h (2 Bft) N-NW 329 0 min 229 W/m 10,3 C 14,0 C 22,5 km/h (4 Bft)
04.07.2017 09:06 15,9 C 70 % 1017,8 hPa 0,0 l/m 10,2 km/h (2 Bft) W 277 3 min 547 W/m 10,4 C 14,0 C 27,4 km/h (5 Bft)
04.07.2017 09:09 15,9 C 70 % 1017,8 hPa 0,0 l/m 9,0 km/h (2 Bft) W 278 0 min 220 W/m 10,4 C 14,6 C 22,5 km/h (4 Bft)
04.07.2017 09:12 15,9 C 69 % 1017,8 hPa 0,0 l/m 12,8 km/h (3 Bft) NW 304 3 min 332 W/m 10,2 C 13,0 C 19,3 km/h (3 Bft)
04.07.2017 09:15 16,1 C 71 % 1017,9 hPa 0,0 l/m 11,7 km/h (2 Bft) W 279 3 min 617 W/m 10,8 C 13,7 C 20,9 km/h (4 Bft)
04.07.2017 09:18 16,2 C 70 % 1017,9 hPa 0,0 l/m 11,7 km/h (2 Bft) W 263 0 min 243 W/m 10,7 C 13,8 C 20,9 km/h (4 Bft)
04.07.2017 09:21 16,3 C 71 % 1017,9 hPa 0,0 l/m 10,4 km/h (2 Bft) W-NW 300 3 min 599 W/m 11,0 C 14,4 C 22,5 km/h (4 Bft)
04.07.2017 09:24 16,4 C 71 % 1017,9 hPa 0,0 l/m 8,5 km/h (2 Bft) W 275 3 min 485 W/m 11,1 C 15,3 C 17,7 km/h (3 Bft)
04.07.2017 09:27 16,3 C 69 % 1018,0 hPa 0,0 l/m 10,9 km/h (2 Bft) W 270 0 min 54 W/m 10,6 C 14,2 C 22,5 km/h (4 Bft)
04.07.2017 09:30 16,2 C 71 % 1018,1 hPa 0,0 l/m 10,8 km/h (2 Bft) W-NW 294 3 min 552 W/m 10,9 C 14,1 C 22,5 km/h (4 Bft)
04.07.2017 09:33 16,2 C 71 % 1018,0 hPa 0,0 l/m 16,5 km/h (3 Bft) W 279 3 min 552 W/m 10,9 C 12,2 C 25,7 km/h (4 Bft)
04.07.2017 09:36 16,3 C 69 % 1018,1 hPa 0,0 l/m 13,3 km/h (3 Bft) W 267 3 min 577 W/m 10,6 C 13,3 C 25,7 km/h (4 Bft)
04.07.2017 09:39 16,5 C 69 % 1018,2 hPa 0,0 l/m 14,3 km/h (3 Bft) W-SW 244 3 min 548 W/m 10,8 C 13,2 C 22,5 km/h (4 Bft)
04.07.2017 09:42 16,6 C 70 % 1018,1 hPa 0,0 l/m 13,2 km/h (3 Bft) W-NW 296 3 min 601 W/m 11,1 C 13,7 C 22,5 km/h (4 Bft)
04.07.2017 09:45 16,8 C 68 % 1018,2 hPa 0,0 l/m 15,4 km/h (3 Bft) SW 235 3 min 647 W/m 10,9 C 13,3 C 22,5 km/h (4 Bft)
04.07.2017 09:48 16,8 C 67 % 1018,3 hPa 0,0 l/m 11,7 km/h (2 Bft) W 275 0 min 151 W/m 10,6 C 14,5 C 22,5 km/h (4 Bft)
04.07.2017 09:51 16,7 C 67 % 1018,3 hPa 0,0 l/m 12,1 km/h (2 Bft) NW 315 3 min 617 W/m 10,5 C 14,2 C 20,9 km/h (4 Bft)
04.07.2017 09:54 16,8 C 65 % 1018,2 hPa 0,0 l/m 13,8 km/h (3 Bft) W-NW 283 3 min 615 W/m 10,2 C 13,7 C 20,9 km/h (4 Bft)
04.07.2017 09:57 17,0 C 66 % 1018,2 hPa 0,0 l/m 10,3 km/h (2 Bft) W 275 3 min 691 W/m 10,6 C 15,2 C 20,9 km/h (4 Bft)
04.07.2017 10:00 17,2 C 64 % 1018,3 hPa 0,0 l/m 11,0 km/h (2 Bft) W 273 3 min 768 W/m 10,3 C 15,2 C 22,5 km/h (4 Bft)
04.07.2017 10:03 17,2 C 66 % 1018,3 hPa 0,0 l/m 9,5 km/h (2 Bft) W 262 3 min 371 W/m 10,8 C 15,8 C 19,3 km/h (3 Bft)
04.07.2017 10:06 17,2 C 64 % 1018,3 hPa 0,0 l/m 15,5 km/h (3 Bft) W-NW 288 3 min 387 W/m 10,3 C 13,7 C 24,1 km/h (4 Bft)
04.07.2017 10:09 17,1 C 63 % 1018,3 hPa 0,0 l/m 11,2 km/h (2 Bft) W-SW 246 0 min 329 W/m 10,0 C 15,0 C 24,1 km/h (4 Bft)
04.07.2017 10:12 17,1 C 64 % 1018,3 hPa 0,0 l/m 9,0 km/h (2 Bft) W 265 0 min 320 W/m 10,2 C 15,9 C 17,7 km/h (3 Bft)
04.07.2017 10:15 16,9 C 62 % 1018,3 hPa 0,0 l/m 13,3 km/h (3 Bft) W 269 3 min 443 W/m 9,6 C 14,0 C 24,1 km/h (4 Bft)
04.07.2017 10:18 16,9 C 66 % 1018,3 hPa 0,0 l/m 9,3 km/h (2 Bft) NW 323 3 min 387 W/m 10,5 C 15,5 C 22,5 km/h (4 Bft)
04.07.2017 10:21 16,9 C 66 % 1018,3 hPa 0,0 l/m 12,8 km/h (3 Bft) W-SW 238 0 min 355 W/m 10,5 C 14,2 C 22,5 km/h (4 Bft)
04.07.2017 10:24 16,9 C 66 % 1018,3 hPa 0,0 l/m 11,5 km/h (2 Bft) W 273 3 min 388 W/m 10,5 C 14,6 C 20,9 km/h (4 Bft)
04.07.2017 10:27 17,1 C 66 % 1018,4 hPa 0,0 l/m 10,8 km/h (2 Bft) W-NW 289 3 min 592 W/m 10,7 C 15,1 C 20,9 km/h (4 Bft)
04.07.2017 10:30 17,1 C 66 % 1018,4 hPa 0,0 l/m 12,9 km/h (3 Bft) W-NW 295 3 min 483 W/m 10,7 C 14,4 C 25,7 km/h (4 Bft)
04.07.2017 10:33 17,2 C 65 % 1018,4 hPa 0,0 l/m 12,3 km/h (2 Bft) W-SW 245 3 min 469 W/m 10,6 C 14,7 C 24,1 km/h (4 Bft)
04.07.2017 10:36 17,2 C 66 % 1018,5 hPa 0,0 l/m 14,8 km/h (3 Bft) W-NW 288 3 min 432 W/m 10,8 C 13,9 C 25,7 km/h (4 Bft)
04.07.2017 10:39 17,1 C 67 % 1018,5 hPa 0,0 l/m 13,5 km/h (3 Bft) W 261 3 min 457 W/m 10,9 C 14,2 C 22,5 km/h (4 Bft)
04.07.2017 10:42 17,0 C 67 % 1018,5 hPa 0,0 l/m 11,9 km/h (2 Bft) W 275 3 min 392 W/m 10,8 C 14,6 C 24,1 km/h (4 Bft)
04.07.2017 10:45 17,0 C 69 % 1018,4 hPa 0,0 l/m 14,3 km/h (3 Bft) W-NW 294 3 min 431 W/m 11,3 C 13,8 C 25,7 km/h (4 Bft)
04.07.2017 10:48 17,1 C 69 % 1018,5 hPa 0,0 l/m 8,4 km/h (2 Bft) W 259 0 min 334 W/m 11,4 C 16,1 C 16,1 km/h (3 Bft)
04.07.2017 10:51 16,9 C 66 % 1018,5 hPa 0,0 l/m 13,5 km/h (3 Bft) W-NW 288 0 min 323 W/m 10,5 C 14,0 C 25,7 km/h (4 Bft)
04.07.2017 10:54 16,8 C 67 % 1018,5 hPa 0,0 l/m 11,9 km/h (2 Bft) W-NW 283 3 min 403 W/m 10,6 C 14,4 C 20,9 km/h (4 Bft)
04.07.2017 10:57 17,0 C 66 % 1018,5 hPa 0,0 l/m 11,2 km/h (2 Bft) W 264 3 min 452 W/m 10,6 C 14,9 C 24,1 km/h (4 Bft)
04.07.2017 11:00 16,9 C 66 % 1018,5 hPa 0,0 l/m 13,8 km/h (3 Bft) W 276 3 min 450 W/m 10,5 C 13,9 C 25,7 km/h (4 Bft)
04.07.2017 11:03 17,1 C 66 % 1018,6 hPa 0,0 l/m 11,1 km/h (2 Bft) W-NW 290 3 min 418 W/m 10,7 C 15,0 C 20,9 km/h (4 Bft)
04.07.2017 11:06 17,0 C 66 % 1018,5 hPa 0,0 l/m 13,8 km/h (3 Bft) W 273 0 min 343 W/m 10,6 C 14,0 C 20,9 km/h (4 Bft)
04.07.2017 11:09 17,0 C 66 % 1018,5 hPa 0,0 l/m 11,4 km/h (2 Bft) SW 236 0 min 394 W/m 10,6 C 14,8 C 20,9 km/h (4 Bft)
04.07.2017 11:12 17,0 C 66 % 1018,6 hPa 0,0 l/m 11,6 km/h (2 Bft) W-NW 303 3 min 563 W/m 10,6 C 14,7 C 22,5 km/h (4 Bft)
04.07.2017 11:15 17,2 C 67 % 1018,5 hPa 0,0 l/m 8,7 km/h (2 Bft) W-SW 254 3 min 468 W/m 11,0 C 16,1 C 19,3 km/h (3 Bft)
04.07.2017 11:18 17,3 C 65 % 1018,6 hPa 0,0 l/m 16,1 km/h (3 Bft) W-NW 286 3 min 469 W/m 10,7 C 13,7 C 29,0 km/h (5 Bft)
04.07.2017 11:21 17,3 C 66 % 1018,6 hPa 0,0 l/m 9,8 km/h (2 Bft) NO 39 3 min 436 W/m 10,9 C 15,7 C 24,1 km/h (4 Bft)
04.07.2017 11:24 17,5 C 66 % 1018,6 hPa 0,0 l/m 7,8 km/h (2 Bft) SW 222 3 min 466 W/m 11,1 C 16,8 C 20,9 km/h (4 Bft)
04.07.2017 11:27 17,6 C 64 % 1018,6 hPa 0,0 l/m 9,4 km/h (2 Bft) NW 307 3 min 503 W/m 10,7 C 16,2 C 20,9 km/h (4 Bft)
04.07.2017 11:30 17,6 C 64 % 1018,6 hPa 0,0 l/m 15,0 km/h (3 Bft) W 259 3 min 492 W/m 10,7 C 14,3 C 25,7 km/h (4 Bft)
04.07.2017 11:33 17,4 C 63 % 1018,6 hPa 0,0 l/m 14,0 km/h (3 Bft) W-SW 249 3 min 473 W/m 10,3 C 14,4 C 25,7 km/h (4 Bft)
04.07.2017 11:36 17,4 C 64 % 1018,7 hPa 0,0 l/m 12,7 km/h (3 Bft) W-NW 288 3 min 570 W/m 10,5 C 14,8 C 24,1 km/h (4 Bft)
04.07.2017 11:39 17,6 C 66 % 1018,7 hPa 0,0 l/m 16,4 km/h (3 Bft) W-NW 294 3 min 448 W/m 11,2 C 14,0 C 30,6 km/h (5 Bft)
04.07.2017 11:42 17,4 C 66 % 1018,7 hPa 0,0 l/m 11,3 km/h (2 Bft) W 281 3 min 434 W/m 11,0 C 15,3 C 24,1 km/h (4 Bft)
04.07.2017 11:45 17,4 C 67 % 1018,8 hPa 0,0 l/m 12,2 km/h (2 Bft) W 268 3 min 489 W/m 11,2 C 15,0 C 24,1 km/h (4 Bft)
04.07.2017 11:48 17,4 C 65 % 1018,7 hPa 0,0 l/m 11,8 km/h (2 Bft) W-SW 253 3 min 529 W/m 10,8 C 15,1 C 22,5 km/h (4 Bft)
04.07.2017 11:51 17,5 C 66 % 1018,8 hPa 0,0 l/m 12,8 km/h (3 Bft) W-NW 288 3 min 587 W/m 11,1 C 14,9 C 25,7 km/h (4 Bft)
04.07.2017 11:54 17,7 C 65 % 1018,8 hPa 0,0 l/m 8,9 km/h (2 Bft) N-NW 335 3 min 568 W/m 11,0 C 16,5 C 25,7 km/h (4 Bft)
04.07.2017 11:57 17,7 C 66 % 1018,8 hPa 0,0 l/m 14,6 km/h (3 Bft) W-SW 248 3 min 575 W/m 11,3 C 14,6 C 25,7 km/h (4 Bft)
04.07.2017 12:00 17,7 C 66 % 1018,8 hPa 0,0 l/m 14,0 km/h (3 Bft) W 272 3 min 615 W/m 11,3 C 14,8 C 24,1 km/h (4 Bft)
04.07.2017 12:03 17,8 C 67 % 1018,8 hPa 0,0 l/m 16,0 km/h (3 Bft) NW 309 3 min 489 W/m 11,6 C 14,3 C 27,4 km/h (5 Bft)
04.07.2017 12:06 17,6 C 68 % 1018,8 hPa 0,0 l/m 12,6 km/h (3 Bft) W 265 3 min 497 W/m 11,6 C 15,1 C 24,1 km/h (4 Bft)
04.07.2017 12:09 17,5 C 68 % 1018,9 hPa 0,0 l/m 11,7 km/h (2 Bft) W 273 3 min 476 W/m 11,5 C 15,3 C 22,5 km/h (4 Bft)
04.07.2017 12:12 17,4 C 67 % 1018,9 hPa 0,0 l/m 15,0 km/h (3 Bft) W-SW 244 3 min 454 W/m 11,2 C 14,1 C 30,6 km/h (5 Bft)
04.07.2017 12:15 17,3 C 68 % 1018,9 hPa 0,0 l/m 13,3 km/h (3 Bft) W 265 0 min 425 W/m 11,3 C 14,5 C 22,5 km/h (4 Bft)
04.07.2017 12:18 17,3 C 69 % 1019,0 hPa 0,0 l/m 12,4 km/h (2 Bft) W 266 0 min 446 W/m 11,6 C 14,8 C 27,4 km/h (5 Bft)
04.07.2017 12:21 17,3 C 69 % 1019,0 hPa 0,0 l/m 15,0 km/h (3 Bft) W-NW 300 3 min 482 W/m 11,6 C 14,0 C 24,1 km/h (4 Bft)
04.07.2017 12:24 17,4 C 69 % 1019,0 hPa 0,0 l/m 12,6 km/h (3 Bft) W 276 3 min 490 W/m 11,7 C 14,8 C 24,1 km/h (4 Bft)
04.07.2017 12:27 17,4 C 68 % 1019,1 hPa 0,0 l/m 12,5 km/h (2 Bft) W 261 3 min 459 W/m 11,4 C 14,9 C 24,1 km/h (4 Bft)
04.07.2017 12:30 17,4 C 68 % 1019,1 hPa 0,0 l/m 11,0 km/h (2 Bft) W-NW 300 3 min 519 W/m 11,4 C 15,4 C 25,7 km/h (4 Bft)
04.07.2017 12:33 17,4 C 69 % 1019,1 hPa 0,0 l/m 12,9 km/h (3 Bft) SW 236 3 min 459 W/m 11,7 C 14,7 C 22,5 km/h (4 Bft)
04.07.2017 12:36 17,6 C 70 % 1019,1 hPa 0,0 l/m 9,0 km/h (2 Bft) W 268 3 min 462 W/m 12,1 C 16,4 C 14,5 km/h (3 Bft)
04.07.2017 12:39 17,7 C 69 % 1019,1 hPa 0,0 l/m 10,6 km/h (2 Bft) NW 311 3 min 515 W/m 11,9 C 15,9 C 25,7 km/h (4 Bft)
04.07.2017 12:42 17,7 C 69 % 1019,1 hPa 0,0 l/m 13,6 km/h (3 Bft) W 268 3 min 522 W/m 11,9 C 14,9 C 22,5 km/h (4 Bft)
04.07.2017 12:45 17,7 C 67 % 1019,1 hPa 0,0 l/m 14,2 km/h (3 Bft) W 267 3 min 589 W/m 11,5 C 14,7 C 22,5 km/h (4 Bft)
04.07.2017 12:48 17,7 C 68 % 1019,1 hPa 0,0 l/m 12,8 km/h (3 Bft) W 281 0 min 404 W/m 11,7 C 15,1 C 20,9 km/h (4 Bft)
04.07.2017 12:51 17,9 C 68 % 1019,0 hPa 0,0 l/m 11,5 km/h (2 Bft) SW 230 3 min 1081 W/m 11,9 C 15,8 C 22,5 km/h (4 Bft)
04.07.2017 12:54 18,2 C 67 % 1019,1 hPa 0,0 l/m 10,9 km/h (2 Bft) NW 315 3 min 1081 W/m 12,0 C 16,3 C 17,7 km/h (3 Bft)
04.07.2017 12:57 18,1 C 66 % 1019,1 hPa 0,0 l/m 13,9 km/h (3 Bft) NW 319 3 min 554 W/m 11,6 C 15,3 C 27,4 km/h (5 Bft)
04.07.2017 13:00 17,9 C 67 % 1019,1 hPa 0,0 l/m 11,5 km/h (2 Bft) W 266 0 min 420 W/m 11,7 C 15,8 C 17,7 km/h (3 Bft)
04.07.2017 13:03 18,0 C 67 % 1019,1 hPa 0,0 l/m 13,0 km/h (3 Bft) W-NW 290 3 min 1107 W/m 11,8 C 15,4 C 20,9 km/h (4 Bft)
04.07.2017 13:06 18,2 C 68 % 1019,1 hPa 0,0 l/m 9,9 km/h (2 Bft) W-SW 237 3 min 1162 W/m 12,2 C 16,7 C 19,3 km/h (3 Bft)
04.07.2017 13:09 18,3 C 66 % 1019,1 hPa 0,0 l/m 12,0 km/h (2 Bft) W-NW 303 0 min 394 W/m 11,8 C 16,1 C 24,1 km/h (4 Bft)
04.07.2017 13:12 18,2 C 65 % 1019,2 hPa 0,0 l/m 13,4 km/h (3 Bft) W-SW 258 0 min 394 W/m 11,5 C 15,5 C 24,1 km/h (4 Bft)
04.07.2017 13:15 18,3 C 65 % 1019,2 hPa 0,0 l/m 13,0 km/h (3 Bft) W 275 0 min 394 W/m 11,6 C 15,8 C 22,5 km/h (4 Bft)
04.07.2017 13:18 18,3 C 67 % 1019,2 hPa 0,0 l/m 11,6 km/h (2 Bft) W 275 0 min 316 W/m 12,1 C 16,2 C 25,7 km/h (4 Bft)
04.07.2017 13:21 17,9 C 65 % 1019,2 hPa 0,0 l/m 13,4 km/h (3 Bft) NW 315 0 min 417 W/m 11,2 C 15,2 C 29,0 km/h (5 Bft)
04.07.2017 13:24 17,9 C 67 % 1019,3 hPa 0,0 l/m 10,3 km/h (2 Bft) W 278 0 min 401 W/m 11,7 C 16,2 C 19,3 km/h (3 Bft)
04.07.2017 13:27 17,8 C 65 % 1019,2 hPa 0,0 l/m 12,2 km/h (2 Bft) W 281 0 min 445 W/m 11,1 C 15,4 C 20,9 km/h (4 Bft)
04.07.2017 13:30 18,2 C 67 % 1019,2 hPa 0,0 l/m 11,6 km/h (2 Bft) W 263 3 min 946 W/m 12,0 C 16,1 C 22,5 km/h (4 Bft)
04.07.2017 13:33 18,8 C 67 % 1019,2 hPa 0,0 l/m 11,4 km/h (2 Bft) W-NW 286 3 min 960 W/m 12,5 C 16,8 C 22,5 km/h (4 Bft)
04.07.2017 13:36 18,8 C 66 % 1019,2 hPa 0,0 l/m 13,8 km/h (3 Bft) W-NW 298 3 min 935 W/m 12,3 C 16,1 C 24,1 km/h (4 Bft)
04.07.2017 13:39 19,0 C 66 % 1019,2 hPa 0,0 l/m 13,1 km/h (3 Bft) W-SW 237 3 min 970 W/m 12,5 C 16,6 C 20,9 km/h (4 Bft)
04.07.2017 13:42 18,8 C 63 % 1019,2 hPa 0,0 l/m 13,9 km/h (3 Bft) N-NW 332 3 min 993 W/m 11,6 C 16,1 C 25,7 km/h (4 Bft)
04.07.2017 13:45 18,9 C 63 % 1019,3 hPa 0,0 l/m 11,7 km/h (2 Bft) W 271 3 min 875 W/m 11,7 C 16,9 C 24,1 km/h (4 Bft)
04.07.2017 13:48 18,8 C 65 % 1019,3 hPa 0,0 l/m 13,0 km/h (3 Bft) W-NW 292 3 min 907 W/m 12,1 C 16,3 C 25,7 km/h (4 Bft)
04.07.2017 13:51 19,0 C 65 % 1019,3 hPa 0,0 l/m 8,6 km/h (2 Bft) W 265 3 min 1120 W/m 12,3 C 18,1 C 19,3 km/h (3 Bft)
04.07.2017 13:54 18,9 C 64 % 1019,3 hPa 0,0 l/m 13,9 km/h (3 Bft) W 275 0 min 295 W/m 11,9 C 16,2 C 25,7 km/h (4 Bft)
04.07.2017 13:57 18,4 C 63 % 1019,3 hPa 0,0 l/m 10,6 km/h (2 Bft) NW 313 0 min 383 W/m 11,2 C 16,7 C 20,9 km/h (4 Bft)
04.07.2017 14:00 18,6 C 66 % 1019,3 hPa 0,0 l/m 8,3 km/h (2 Bft) W 268 0 min 360 W/m 12,1 C 17,8 C 19,3 km/h (3 Bft)
04.07.2017 14:03 18,4 C 66 % 1019,3 hPa 0,0 l/m 9,9 km/h (2 Bft) W-NW 291 0 min 360 W/m 11,9 C 16,9 C 17,7 km/h (3 Bft)
04.07.2017 14:06 18,3 C 66 % 1019,4 hPa 0,0 l/m 12,3 km/h (2 Bft) W-SW 240 0 min 362 W/m 11,8 C 16,0 C 22,5 km/h (4 Bft)
04.07.2017 14:09 18,4 C 66 % 1019,4 hPa 0,0 l/m 11,2 km/h (2 Bft) W 274 3 min 1137 W/m 11,9 C 16,5 C 19,3 km/h (3 Bft)
04.07.2017 14:12 18,7 C 65 % 1019,5 hPa 0,0 l/m 18,1 km/h (3 Bft) W-NW 298 3 min 1137 W/m 12,0 C 14,9 C 25,7 km/h (4 Bft)
04.07.2017 14:15 18,5 C 66 % 1019,4 hPa 0,0 l/m 10,2 km/h (2 Bft) W-SW 254 0 min 380 W/m 12,0 C 16,9 C 20,9 km/h (4 Bft)
04.07.2017 14:18 18,9 C 63 % 1019,4 hPa 0,0 l/m 9,5 km/h (2 Bft) W 280 3 min 939 W/m 11,7 C 17,6 C 19,3 km/h (3 Bft)
04.07.2017 14:21 19,1 C 62 % 1019,4 hPa 0,0 l/m 14,7 km/h (3 Bft) W-NW 282 3 min 1060 W/m 11,6 C 16,2 C 22,5 km/h (4 Bft)
04.07.2017 14:24 19,0 C 64 % 1019,4 hPa 0,0 l/m 12,7 km/h (3 Bft) W 271 3 min 1060 W/m 12,0 C 16,7 C 25,7 km/h (4 Bft)
04.07.2017 14:27 19,1 C 64 % 1019,4 hPa 0,0 l/m 7,7 km/h (2 Bft) W-NW 291 0 min 434 W/m 12,1 C 18,5 C 17,7 km/h (3 Bft)
04.07.2017 14:30 18,8 C 63 % 1019,5 hPa 0,0 l/m 9,3 km/h (2 Bft) W 269 0 min 369 W/m 11,6 C 17,6 C 20,9 km/h (4 Bft)
04.07.2017 14:33 18,6 C 64 % 1019,5 hPa 0,0 l/m 10,1 km/h (2 Bft) W-NW 296 0 min 341 W/m 11,7 C 17,1 C 19,3 km/h (3 Bft)
04.07.2017 14:36 18,2 C 65 % 1019,4 hPa 0,0 l/m 6,7 km/h (2 Bft) W-SW 248 0 min 216 W/m 11,5 C 18,1 C 16,1 km/h (3 Bft)
04.07.2017 14:39 18,0 C 67 % 1019,5 hPa 0,0 l/m 8,4 km/h (2 Bft) W 262 0 min 181 W/m 11,8 C 17,1 C 20,9 km/h (4 Bft)
04.07.2017 14:42 17,8 C 68 % 1019,4 hPa 0,0 l/m 12,3 km/h (2 Bft) W 259 0 min 269 W/m 11,8 C 15,4 C 22,5 km/h (4 Bft)
04.07.2017 14:45 17,8 C 68 % 1019,4 hPa 0,0 l/m 9,8 km/h (2 Bft) W 263 0 min 438 W/m 11,8 C 16,3 C 17,7 km/h (3 Bft)
04.07.2017 14:48 17,8 C 68 % 1019,5 hPa 0,0 l/m 12,4 km/h (2 Bft) W 265 3 min 670 W/m 11,8 C 15,4 C 19,3 km/h (3 Bft)
04.07.2017 14:51 18,0 C 68 % 1019,4 hPa 0,0 l/m 10,1 km/h (2 Bft) W-NW 284 3 min 647 W/m 12,0 C 16,4 C 19,3 km/h (3 Bft)
04.07.2017 14:54 18,3 C 68 % 1019,5 hPa 0,0 l/m 10,5 km/h (2 Bft) W 259 0 min 378 W/m 12,3 C 16,6 C 22,5 km/h (4 Bft)
04.07.2017 14:57 18,4 C 68 % 1019,5 hPa 0,0 l/m 9,5 km/h (2 Bft) NW 304 0 min 355 W/m 12,4 C 17,1 C 24,1 km/h (4 Bft)
04.07.2017 15:00 18,4 C 66 % 1019,5 hPa 0,0 l/m 10,4 km/h (2 Bft) N-NW 333 3 min 494 W/m 11,9 C 16,7 C 17,7 km/h (3 Bft)
04.07.2017 15:03 18,4 C 68 % 1019,4 hPa 0,0 l/m 9,0 km/h (2 Bft) W 275 0 min 360 W/m 12,4 C 17,3 C 17,7 km/h (3 Bft)
04.07.2017 15:06 18,4 C 66 % 1019,5 hPa 0,0 l/m 10,1 km/h (2 Bft) SO 128 0 min 318 W/m 11,9 C 16,8 C 16,1 km/h (3 Bft)
04.07.2017 15:09 18,3 C 66 % 1019,5 hPa 0,0 l/m 11,1 km/h (2 Bft) W-NW 283 0 min 366 W/m 11,8 C 16,4 C 22,5 km/h (4 Bft)
04.07.2017 15:12 18,5 C 67 % 1019,5 hPa 0,0 l/m 12,0 km/h (2 Bft) W 262 0 min 366 W/m 12,3 C 16,3 C 22,5 km/h (4 Bft)
04.07.2017 15:15 18,6 C 66 % 1019,5 hPa 0,0 l/m 11,5 km/h (2 Bft) W 275 3 min 527 W/m 12,1 C 16,6 C 24,1 km/h (4 Bft)
04.07.2017 15:18 18,6 C 65 % 1019,5 hPa 0,0 l/m 10,6 km/h (2 Bft) W-SW 251 3 min 519 W/m 11,9 C 16,9 C 17,7 km/h (3 Bft)
04.07.2017 15:21 18,5 C 65 % 1019,6 hPa 0,0 l/m 9,5 km/h (2 Bft) W 275 3 min 524 W/m 11,8 C 17,2 C 25,7 km/h (4 Bft)
04.07.2017 15:24 18,4 C 65 % 1019,5 hPa 0,0 l/m 9,8 km/h (2 Bft) W-NW 285 3 min 443 W/m 11,7 C 16,9 C 19,3 km/h (3 Bft)
04.07.2017 15:27 18,3 C 66 % 1019,5 hPa 0,0 l/m 8,6 km/h (2 Bft) SW 235 3 min 589 W/m 11,8 C 17,3 C 17,7 km/h (3 Bft)
04.07.2017 15:30 18,5 C 66 % 1019,5 hPa 0,0 l/m 11,6 km/h (2 Bft) W-SW 256 0 min 415 W/m 12,0 C 16,4 C 17,7 km/h (3 Bft)
04.07.2017 15:33 18,4 C 66 % 1019,5 hPa 0,0 l/m 9,4 km/h (2 Bft) W 279 3 min 431 W/m 11,9 C 17,1 C 17,7 km/h (3 Bft)
04.07.2017 15:36 18,7 C 67 % 1019,5 hPa 0,0 l/m 10,0 km/h (2 Bft) W 266 3 min 633 W/m 12,4 C 17,2 C 19,3 km/h (3 Bft)
04.07.2017 15:39 18,9 C 66 % 1019,5 hPa 0,0 l/m 8,3 km/h (2 Bft) W 277 3 min 541 W/m 12,4 C 18,1 C 17,7 km/h (3 Bft)
04.07.2017 15:42 18,9 C 65 % 1019,6 hPa 0,0 l/m 11,5 km/h (2 Bft) W-NW 284 3 min 519 W/m 12,2 C 16,9 C 19,3 km/h (3 Bft)
04.07.2017 15:45 18,7 C 65 % 1019,5 hPa 0,0 l/m 11,9 km/h (2 Bft) W-NW 285 3 min 519 W/m 12,0 C 16,6 C 22,5 km/h (4 Bft)
04.07.2017 15:48 18,8 C 65 % 1019,6 hPa 0,0 l/m 7,7 km/h (2 Bft) W 277 3 min 605 W/m 12,1 C 18,2 C 16,1 km/h (3 Bft)
04.07.2017 15:51 18,8 C 64 % 1019,6 hPa 0,0 l/m 10,4 km/h (2 Bft) W-NW 283 3 min 912 W/m 11,8 C 17,2 C 19,3 km/h (3 Bft)
04.07.2017 15:54 18,9 C 64 % 1019,6 hPa 0,0 l/m 8,8 km/h (2 Bft) W 281 3 min 828 W/m 11,9 C 17,9 C 19,3 km/h (3 Bft)
04.07.2017 15:57 19,2 C 62 % 1019,5 hPa 0,0 l/m 8,7 km/h (2 Bft) N-NW 331 3 min 856 W/m 11,7 C 18,2 C 20,9 km/h (4 Bft)
04.07.2017 16:00 19,2 C 61 % 1019,4 hPa 0,0 l/m 10,7 km/h (2 Bft) W 263 3 min 793 W/m 11,5 C 17,5 C 20,9 km/h (4 Bft)
04.07.2017 16:03 19,1 C 62 % 1019,4 hPa 0,0 l/m 10,4 km/h (2 Bft) W 277 3 min 737 W/m 11,6 C 17,5 C 20,9 km/h (4 Bft)
04.07.2017 16:06 19,1 C 64 % 1019,5 hPa 0,0 l/m 6,6 km/h (2 Bft) W 272 3 min 478 W/m 12,1 C 19,0 C 14,5 km/h (3 Bft)
04.07.2017 16:09 18,9 C 64 % 1019,5 hPa 0,0 l/m 6,4 km/h (2 Bft) W-SW 257 3 min 490 W/m 11,9 C 18,9 C 16,1 km/h (3 Bft)
04.07.2017 16:12 18,9 C 63 % 1019,5 hPa 0,0 l/m 11,5 km/h (2 Bft) W 271 3 min 594 W/m 11,7 C 16,9 C 24,1 km/h (4 Bft)
04.07.2017 16:15 18,7 C 64 % 1019,5 hPa 0,0 l/m 9,5 km/h (2 Bft) NW 315 0 min 387 W/m 11,7 C 17,4 C 17,7 km/h (3 Bft)
04.07.2017 16:18 18,6 C 64 % 1019,4 hPa 0,0 l/m 8,8 km/h (2 Bft) W-NW 289 0 min 248 W/m 11,7 C 17,6 C 19,3 km/h (3 Bft)
04.07.2017 16:21 18,3 C 65 % 1019,4 hPa 0,0 l/m 8,2 km/h (2 Bft) W 273 0 min 264 W/m 11,6 C 17,5 C 16,1 km/h (3 Bft)
04.07.2017 16:24 18,0 C 65 % 1019,4 hPa 0,0 l/m 10,3 km/h (2 Bft) NW 310 0 min 230 W/m 11,3 C 16,3 C 19,3 km/h (3 Bft)
04.07.2017 16:27 17,8 C 66 % 1019,4 hPa 0,0 l/m 11,1 km/h (2 Bft) W 276 0 min 294 W/m 11,4 C 15,8 C 19,3 km/h (3 Bft)
04.07.2017 16:30 17,8 C 67 % 1019,4 hPa 0,0 l/m 9,3 km/h (2 Bft) W-NW 292 3 min 452 W/m 11,6 C 16,5 C 20,9 km/h (4 Bft)
04.07.2017 16:33 18,0 C 66 % 1019,4 hPa 0,0 l/m 9,1 km/h (2 Bft) W-NW 288 0 min 366 W/m 11,6 C 16,8 C 17,7 km/h (3 Bft)
04.07.2017 16:36 18,1 C 66 % 1019,4 hPa 0,0 l/m 10,3 km/h (2 Bft) W-NW 293 3 min 381 W/m 11,6 C 16,4 C 19,3 km/h (3 Bft)
04.07.2017 16:39 18,0 C 67 % 1019,4 hPa 0,0 l/m 10,3 km/h (2 Bft) NW 307 0 min 332 W/m 11,8 C 16,3 C 16,1 km/h (3 Bft)
04.07.2017 16:42 18,1 C 67 % 1019,4 hPa 0,0 l/m 6,3 km/h (2 Bft) W 275 0 min 332 W/m 11,9 C 18,1 C 14,5 km/h (3 Bft)
04.07.2017 16:45 18,4 C 65 % 1019,4 hPa 0,0 l/m 9,7 km/h (2 Bft) W-NW 296 3 min 677 W/m 11,7 C 17,0 C 17,7 km/h (3 Bft)
04.07.2017 16:48 18,8 C 65 % 1019,4 hPa 0,0 l/m 6,7 km/h (2 Bft) N-NW 342 3 min 754 W/m 12,1 C 18,7 C 12,9 km/h (3 Bft)
04.07.2017 16:51 18,6 C 66 % 1019,4 hPa 0,0 l/m 9,7 km/h (2 Bft) W-NW 299 0 min 232 W/m 12,1 C 17,2 C 20,9 km/h (4 Bft)
04.07.2017 16:54 18,3 C 66 % 1019,4 hPa 0,0 l/m 9,0 km/h (2 Bft) W-NW 302 0 min 142 W/m 11,8 C 17,1 C 19,3 km/h (3 Bft)
04.07.2017 16:57 17,9 C 66 % 1019,5 hPa 0,0 l/m 10,8 km/h (2 Bft) N 350 0 min 265 W/m 11,5 C 16,0 C 17,7 km/h (3 Bft)
04.07.2017 17:00 18,1 C 67 % 1019,5 hPa 0,0 l/m 8,3 km/h (2 Bft) NW 317 3 min 710 W/m 11,9 C 17,2 C 16,1 km/h (3 Bft)
04.07.2017 17:03 18,1 C 67 % 1019,5 hPa 0,0 l/m 9,2 km/h (2 Bft) W-NW 301 0 min 195 W/m 11,9 C 16,9 C 17,7 km/h (3 Bft)
04.07.2017 17:06 17,9 C 66 % 1019,5 hPa 0,0 l/m 9,0 km/h (2 Bft) W-NW 283 0 min 141 W/m 11,5 C 16,7 C 19,3 km/h (3 Bft)
04.07.2017 17:09 17,7 C 68 % 1019,5 hPa 0,0 l/m 8,6 km/h (2 Bft) NW 307 0 min 209 W/m 11,7 C 16,7 C 16,1 km/h (3 Bft)
04.07.2017 17:12 17,7 C 70 % 1019,4 hPa 0,0 l/m 9,2 km/h (2 Bft) N-NW 330 0 min 269 W/m 12,2 C 16,4 C 16,1 km/h (3 Bft)
04.07.2017 17:15 17,8 C 69 % 1019,4 hPa 0,0 l/m 10,7 km/h (2 Bft) W 270 0 min 181 W/m 12,0 C 15,9 C 17,7 km/h (3 Bft)
04.07.2017 17:18 17,9 C 68 % 1019,4 hPa 0,0 l/m 10,0 km/h (2 Bft) W 266 3 min 686 W/m 11,9 C 16,3 C 17,7 km/h (3 Bft)
04.07.2017 17:21 18,0 C 68 % 1019,5 hPa 0,0 l/m 7,1 km/h (2 Bft) NW 308 0 min 163 W/m 12,0 C 17,7 C 14,5 km/h (3 Bft)
04.07.2017 17:24 17,8 C 69 % 1019,4 hPa 0,0 l/m 6,5 km/h (2 Bft) NW 308 0 min 169 W/m 12,0 C 17,8 C 17,7 km/h (3 Bft)
04.07.2017 17:27 17,7 C 68 % 1019,4 hPa 0,0 l/m 9,9 km/h (2 Bft) W-NW 290 0 min 156 W/m 11,7 C 16,1 C 20,9 km/h (4 Bft)
04.07.2017 17:30 17,6 C 70 % 1019,5 hPa 0,0 l/m 5,5 km/h (2 Bft) NW 304 0 min 149 W/m 12,1 C 17,6 C 12,9 km/h (3 Bft)
04.07.2017 17:33 17,4 C 70 % 1019,4 hPa 0,0 l/m 8,6 km/h (2 Bft) N-NW 331 0 min 148 W/m 11,9 C 16,4 C 16,1 km/h (3 Bft)
04.07.2017 17:36 17,3 C 70 % 1019,4 hPa 0,0 l/m 6,9 km/h (2 Bft) W-NW 282 0 min 209 W/m 11,8 C 17,1 C 16,1 km/h (3 Bft)
04.07.2017 17:39 17,6 C 71 % 1019,4 hPa 0,0 l/m 7,3 km/h (2 Bft) W 275 3 min 700 W/m 12,3 C 17,2 C 16,1 km/h (3 Bft)
04.07.2017 17:42 17,9 C 69 % 1019,4 hPa 0,0 l/m 7,8 km/h (2 Bft) N 355 0 min 216 W/m 12,1 C 17,2 C 16,1 km/h (3 Bft)
04.07.2017 17:45 18,0 C 69 % 1019,4 hPa 0,0 l/m 8,3 km/h (2 Bft) S-SW 213 0 min 185 W/m 12,2 C 17,1 C 16,1 km/h (3 Bft)
04.07.2017 17:48 18,0 C 66 % 1019,5 hPa 0,0 l/m 6,9 km/h (2 Bft) W 273 0 min 253 W/m 11,6 C 17,8 C 14,5 km/h (3 Bft)
04.07.2017 17:51 17,9 C 65 % 1019,5 hPa 0,0 l/m 8,0 km/h (2 Bft) W 261 3 min 448 W/m 11,2 C 17,1 C 19,3 km/h (3 Bft)
04.07.2017 17:54 17,9 C 66 % 1019,5 hPa 0,0 l/m 8,7 km/h (2 Bft) W 281 3 min 403 W/m 11,5 C 16,8 C 17,7 km/h (3 Bft)
04.07.2017 17:57 17,9 C 64 % 1019,5 hPa 0,0 l/m 13,8 km/h (3 Bft) NW 321 3 min 323 W/m 11,0 C 15,0 C 20,9 km/h (4 Bft)
04.07.2017 18:00 17,7 C 66 % 1019,5 hPa 0,0 l/m 8,9 km/h (2 Bft) NW 323 0 min 158 W/m 11,3 C 16,5 C 17,7 km/h (3 Bft)
04.07.2017 18:03 17,6 C 69 % 1019,5 hPa 0,0 l/m 6,3 km/h (2 Bft) NW 307 0 min 197 W/m 11,8 C 17,6 C 12,9 km/h (3 Bft)
04.07.2017 18:06 17,8 C 69 % 1019,5 hPa 0,0 l/m 5,9 km/h (2 Bft) W 273 0 min 192 W/m 12,0 C 17,8 C 16,1 km/h (3 Bft)
04.07.2017 18:09 17,8 C 68 % 1019,5 hPa 0,0 l/m 5,8 km/h (2 Bft) W-SW 243 0 min 218 W/m 11,8 C 17,8 C 14,5 km/h (3 Bft)
04.07.2017 18:12 17,8 C 69 % 1019,4 hPa 0,0 l/m 9,5 km/h (2 Bft) N-NW 347 3 min 501 W/m 12,0 C 16,4 C 16,1 km/h (3 Bft)
04.07.2017 18:15 17,9 C 68 % 1019,5 hPa 0,0 l/m 8,8 km/h (2 Bft) NW 320 3 min 466 W/m 11,9 C 16,8 C 16,1 km/h (3 Bft)
04.07.2017 18:18 17,8 C 67 % 1019,4 hPa 0,0 l/m 7,2 km/h (2 Bft) W 273 0 min 155 W/m 11,6 C 17,4 C 17,7 km/h (3 Bft)
04.07.2017 18:21 17,7 C 68 % 1019,5 hPa 0,0 l/m 7,3 km/h (2 Bft) W-NW 296 0 min 216 W/m 11,7 C 17,3 C 17,7 km/h (3 Bft)
04.07.2017 18:24 17,6 C 69 % 1019,4 hPa 0,0 l/m 5,9 km/h (2 Bft) W 278 0 min 139 W/m 11,8 C 17,6 C 12,9 km/h (3 Bft)
04.07.2017 18:27 17,4 C 69 % 1019,4 hPa 0,0 l/m 8,3 km/h (2 Bft) N-NW 329 0 min 160 W/m 11,7 C 16,5 C 16,1 km/h (3 Bft)
04.07.2017 18:30 17,4 C 68 % 1019,4 hPa 0,0 l/m 8,6 km/h (2 Bft) W-NW 290 0 min 232 W/m 11,4 C 16,4 C 14,5 km/h (3 Bft)
04.07.2017 18:33 17,4 C 68 % 1019,3 hPa 0,0 l/m 5,6 km/h (2 Bft) W-NW 288 0 min 236 W/m 11,4 C 17,4 C 12,9 km/h (3 Bft)
04.07.2017 18:36 17,5 C 66 % 1019,3 hPa 0,0 l/m 11,0 km/h (2 Bft) W-SW 250 0 min 204 W/m 11,1 C 15,5 C 19,3 km/h (3 Bft)
04.07.2017 18:39 17,4 C 65 % 1019,3 hPa 0,0 l/m 10,8 km/h (2 Bft) W 259 0 min 193 W/m 10,8 C 15,5 C 16,1 km/h (3 Bft)
04.07.2017 18:42 17,3 C 68 % 1019,3 hPa 0,0 l/m 7,6 km/h (2 Bft) W 276 0 min 169 W/m 11,3 C 16,7 C 14,5 km/h (3 Bft)
04.07.2017 18:45 17,3 C 69 % 1019,3 hPa 0,0 l/m 6,3 km/h (2 Bft) NW 315 0 min 151 W/m 11,6 C 17,3 C 14,5 km/h (3 Bft)
04.07.2017 18:48 17,3 C 69 % 1019,2 hPa 0,0 l/m 3,8 km/h (1 Bft) W-NW 287 0 min 137 W/m 11,6 C 17,3 C 11,3 km/h (2 Bft)
04.07.2017 18:51 17,3 C 68 % 1019,2 hPa 0,0 l/m 5,7 km/h (2 Bft) W-NW 298 0 min 120 W/m 11,3 C 17,3 C 14,5 km/h (3 Bft)
04.07.2017 18:54 17,2 C 69 % 1019,3 hPa 0,0 l/m 6,4 km/h (2 Bft) N-NW 327 0 min 98 W/m 11,5 C 17,2 C 16,1 km/h (3 Bft)
04.07.2017 18:57 17,0 C 70 % 1019,2 hPa 0,0 l/m 8,5 km/h (2 Bft) W-NW 297 0 min 114 W/m 11,5 C 16,0 C 17,7 km/h (3 Bft)
04.07.2017 19:00 16,8 C 71 % 1019,3 hPa 0,0 l/m 8,7 km/h (2 Bft) W 281 0 min 130 W/m 11,5 C 15,7 C 16,1 km/h (3 Bft)
04.07.2017 19:03 16,9 C 71 % 1019,2 hPa 0,0 l/m 7,1 km/h (2 Bft) N-NW 328 0 min 132 W/m 11,6 C 16,5 C 14,5 km/h (3 Bft)
04.07.2017 19:06 16,8 C 71 % 1019,3 hPa 0,0 l/m 7,8 km/h (2 Bft) NW 306 0 min 148 W/m 11,5 C 16,1 C 14,5 km/h (3 Bft)
04.07.2017 19:09 16,9 C 73 % 1019,2 hPa 0,0 l/m 4,9 km/h (1 Bft) N-NW 334 0 min 146 W/m 12,0 C 16,9 C 12,9 km/h (3 Bft)
04.07.2017 19:12 16,9 C 72 % 1019,2 hPa 0,0 l/m 5,5 km/h (2 Bft) NW 308 0 min 135 W/m 11,8 C 16,9 C 16,1 km/h (3 Bft)
04.07.2017 19:15 16,8 C 71 % 1019,2 hPa 0,0 l/m 7,3 km/h (2 Bft) W-NW 292 0 min 139 W/m 11,5 C 16,3 C 12,9 km/h (3 Bft)
04.07.2017 19:18 16,7 C 71 % 1019,2 hPa 0,0 l/m 5,4 km/h (2 Bft) W 271 0 min 142 W/m 11,4 C 16,7 C 16,1 km/h (3 Bft)
04.07.2017 19:21 16,8 C 72 % 1019,3 hPa 0,0 l/m 6,8 km/h (2 Bft) NW 311 0 min 139 W/m 11,7 C 16,6 C 14,5 km/h (3 Bft)
04.07.2017 19:24 16,7 C 71 % 1019,2 hPa 0,0 l/m 7,1 km/h (2 Bft) W 277 0 min 135 W/m 11,4 C 16,3 C 12,9 km/h (3 Bft)
04.07.2017 19:27 16,7 C 72 % 1019,2 hPa 0,0 l/m 6,5 km/h (2 Bft) W 281 0 min 127 W/m 11,6 C 16,7 C 12,9 km/h (3 Bft)
04.07.2017 19:30 16,7 C 70 % 1019,2 hPa 0,0 l/m 9,5 km/h (2 Bft) NW 308 0 min 107 W/m 11,2 C 15,2 C 17,7 km/h (3 Bft)
04.07.2017 19:33 16,6 C 71 % 1019,3 hPa 0,0 l/m 7,5 km/h (2 Bft) W-NW 289 0 min 91 W/m 11,3 C 16,0 C 14,5 km/h (3 Bft)
04.07.2017 19:36 16,6 C 72 % 1019,2 hPa 0,0 l/m 4,0 km/h (1 Bft) NW 324 0 min 77 W/m 11,5 C 16,6 C 12,9 km/h (3 Bft)
04.07.2017 19:39 16,6 C 73 % 1019,2 hPa 0,0 l/m 4,4 km/h (1 Bft) W 267 0 min 67 W/m 11,7 C 16,6 C 11,3 km/h (2 Bft)
04.07.2017 19:42 16,6 C 72 % 1019,3 hPa 0,0 l/m 10,6 km/h (2 Bft) W-SW 257 0 min 65 W/m 11,5 C 14,6 C 16,1 km/h (3 Bft)
04.07.2017 19:45 16,5 C 73 % 1019,2 hPa 0,0 l/m 7,1 km/h (2 Bft) W-NW 284 0 min 63 W/m 11,6 C 16,1 C 17,7 km/h (3 Bft)
04.07.2017 19:48 16,5 C 73 % 1019,2 hPa 0,0 l/m 5,2 km/h (1 Bft) W-NW 285 0 min 65 W/m 11,6 C 16,5 C 12,9 km/h (3 Bft)
04.07.2017 19:51 16,5 C 74 % 1019,2 hPa 0,0 l/m 6,7 km/h (2 Bft) W-NW 292 0 min 62 W/m 11,8 C 16,4 C 14,5 km/h (3 Bft)
04.07.2017 19:54 16,4 C 74 % 1019,2 hPa 0,0 l/m 5,7 km/h (2 Bft) W-NW 285 0 min 63 W/m 11,8 C 16,4 C 14,5 km/h (3 Bft)
04.07.2017 19:57 16,3 C 74 % 1019,2 hPa 0,0 l/m 4,3 km/h (1 Bft) W 281 0 min 62 W/m 11,7 C 16,3 C 9,7 km/h (2 Bft)
04.07.2017 20:00 16,3 C 73 % 1019,2 hPa 0,0 l/m 7,3 km/h (2 Bft) W 268 0 min 62 W/m 11,4 C 15,8 C 16,1 km/h (3 Bft)
04.07.2017 20:03 16,2 C 72 % 1019,1 hPa 0,0 l/m 8,0 km/h (2 Bft) W 269 0 min 62 W/m 11,1 C 15,4 C 14,5 km/h (3 Bft)
04.07.2017 20:06 16,2 C 72 % 1019,1 hPa 0,0 l/m 6,7 km/h (2 Bft) W 267 0 min 56 W/m 11,1 C 16,1 C 12,9 km/h (3 Bft)
04.07.2017 20:09 16,2 C 73 % 1019,2 hPa 0,0 l/m 6,7 km/h (2 Bft) W 266 0 min 49 W/m 11,4 C 16,1 C 14,5 km/h (3 Bft)
04.07.2017 20:12 16,2 C 73 % 1019,1 hPa 0,0 l/m 8,5 km/h (2 Bft) W-NW 286 0 min 44 W/m 11,4 C 15,1 C 16,1 km/h (3 Bft)
04.07.2017 20:15 16,2 C 73 % 1019,2 hPa 0,0 l/m 7,0 km/h (2 Bft) W 259 0 min 40 W/m 11,4 C 15,9 C 19,3 km/h (3 Bft)
04.07.2017 20:18 16,2 C 73 % 1019,1 hPa 0,0 l/m 5,8 km/h (2 Bft) N-NW 327 0 min 39 W/m 11,4 C 16,2 C 12,9 km/h (3 Bft)
04.07.2017 20:21 16,1 C 72 % 1019,2 hPa 0,0 l/m 6,4 km/h (2 Bft) NW 304 0 min 37 W/m 11,0 C 16,1 C 14,5 km/h (3 Bft)
04.07.2017 20:24 16,1 C 72 % 1019,2 hPa 0,0 l/m 5,2 km/h (1 Bft) W 279 0 min 35 W/m 11,0 C 16,1 C 16,1 km/h (3 Bft)
04.07.2017 20:27 16,1 C 72 % 1019,2 hPa 0,0 l/m 5,3 km/h (1 Bft) NW 304 0 min 37 W/m 11,0 C 16,1 C 12,9 km/h (3 Bft)
04.07.2017 20:30 16,1 C 72 % 1019,3 hPa 0,0 l/m 4,8 km/h (1 Bft) W-NW 303 0 min 42 W/m 11,0 C 16,1 C 11,3 km/h (2 Bft)
04.07.2017 20:33 16,1 C 72 % 1019,3 hPa 0,0 l/m 6,4 km/h (2 Bft) NW 305 0 min 46 W/m 11,0 C 16,1 C 11,3 km/h (2 Bft)
04.07.2017 20:36 16,1 C 72 % 1019,3 hPa 0,0 l/m 6,1 km/h (2 Bft) W-NW 294 0 min 42 W/m 11,0 C 16,1 C 14,5 km/h (3 Bft)
04.07.2017 20:39 16,1 C 73 % 1019,3 hPa 0,0 l/m 5,6 km/h (2 Bft) W 269 0 min 33 W/m 11,3 C 16,1 C 12,9 km/h (3 Bft)
04.07.2017 20:42 16,1 C 73 % 1019,3 hPa 0,0 l/m 6,2 km/h (2 Bft) W-SW 254 0 min 26 W/m 11,3 C 16,1 C 16,1 km/h (3 Bft)
04.07.2017 20:45 16,0 C 74 % 1019,3 hPa 0,0 l/m 5,1 km/h (1 Bft) W 280 0 min 21 W/m 11,4 C 16,0 C 14,5 km/h (3 Bft)
04.07.2017 20:48 16,0 C 75 % 1019,3 hPa 0,0 l/m 5,3 km/h (1 Bft) W 273 0 min 21 W/m 11,6 C 16,0 C 16,1 km/h (3 Bft)
04.07.2017 20:51 16,0 C 75 % 1019,3 hPa 0,0 l/m 7,8 km/h (2 Bft) W-NW 283 0 min 19 W/m 11,6 C 15,3 C 16,1 km/h (3 Bft)
04.07.2017 20:54 16,0 C 75 % 1019,2 hPa 0,0 l/m 6,7 km/h (2 Bft) W 275 0 min 21 W/m 11,6 C 15,8 C 16,1 km/h (3 Bft)
04.07.2017 20:57 15,9 C 75 % 1019,2 hPa 0,0 l/m 4,5 km/h (1 Bft) W 281 0 min 23 W/m 11,5 C 15,9 C 11,3 km/h (2 Bft)
04.07.2017 21:00 16,0 C 76 % 1019,3 hPa 0,0 l/m 7,6 km/h (2 Bft) W 278 0 min 23 W/m 11,8 C 15,4 C 14,5 km/h (3 Bft)
04.07.2017 21:03 15,9 C 77 % 1019,2 hPa 0,0 l/m 4,9 km/h (1 Bft) NW 304 0 min 21 W/m 11,9 C 15,9 C 11,3 km/h (2 Bft)
04.07.2017 21:06 15,9 C 78 % 1019,1 hPa 0,0 l/m 5,1 km/h (1 Bft) N-NW 329 0 min 19 W/m 12,1 C 15,9 C 12,9 km/h (3 Bft)
04.07.2017 21:09 15,9 C 77 % 1019,1 hPa 0,0 l/m 7,8 km/h (2 Bft) W-NW 284 0 min 16 W/m 11,9 C 15,1 C 17,7 km/h (3 Bft)
04.07.2017 21:12 15,8 C 77 % 1019,0 hPa 0,0 l/m 5,6 km/h (2 Bft) NW 305 0 min 14 W/m 11,8 C 15,8 C 9,7 km/h (2 Bft)
04.07.2017 21:15 15,7 C 77 % 1019,0 hPa 0,0 l/m 4,0 km/h (1 Bft) N-NW 328 0 min 12 W/m 11,7 C 15,7 C 12,9 km/h (3 Bft)
04.07.2017 21:18 15,7 C 77 % 1019,0 hPa 0,0 l/m 4,9 km/h (1 Bft) N-NW 342 0 min 12 W/m 11,7 C 15,7 C 12,9 km/h (3 Bft)
04.07.2017 21:21 15,7 C 77 % 1019,1 hPa 0,0 l/m 4,3 km/h (1 Bft) W 281 0 min 11 W/m 11,7 C 15,7 C 9,7 km/h (2 Bft)
04.07.2017 21:24 15,6 C 76 % 1019,1 hPa 0,0 l/m 3,9 km/h (1 Bft) W-NW 289 0 min 12 W/m 11,4 C 15,6 C 6,4 km/h (2 Bft)
04.07.2017 21:27 15,6 C 76 % 1019,0 hPa 0,0 l/m 5,4 km/h (2 Bft) NW 311 0 min 12 W/m 11,4 C 15,6 C 11,3 km/h (2 Bft)
04.07.2017 21:30 15,6 C 76 % 1019,0 hPa 0,0 l/m 6,3 km/h (2 Bft) NW 322 0 min 14 W/m 11,4 C 15,6 C 12,9 km/h (3 Bft)
04.07.2017 21:33 15,5 C 76 % 1018,9 hPa 0,0 l/m 6,6 km/h (2 Bft) NW 325 0 min 18 W/m 11,3 C 15,4 C 14,5 km/h (3 Bft)
04.07.2017 21:36 15,5 C 76 % 1019,0 hPa 0,0 l/m 4,7 km/h (1 Bft) NW 304 3 min 21 W/m 11,3 C 15,5 C 14,5 km/h (3 Bft)
04.07.2017 21:39 15,5 C 76 % 1019,0 hPa 0,0 l/m 4,3 km/h (1 Bft) NW 315 3 min 21 W/m 11,3 C 15,5 C 12,9 km/h (3 Bft)
04.07.2017 21:42 15,5 C 76 % 1018,9 hPa 0,0 l/m 4,0 km/h (1 Bft) N-NW 330 3 min 21 W/m 11,3 C 15,5 C 11,3 km/h (2 Bft)
04.07.2017 21:45 15,4 C 76 % 1018,9 hPa 0,0 l/m 3,2 km/h (1 Bft) W-NW 287 0 min 14 W/m 11,2 C 15,4 C 6,4 km/h (2 Bft)
04.07.2017 21:48 15,4 C 76 % 1018,9 hPa 0,0 l/m 4,5 km/h (1 Bft) N-NW 327 0 min 9 W/m 11,2 C 15,4 C 9,7 km/h (2 Bft)
04.07.2017 21:51 15,4 C 76 % 1018,9 hPa 0,0 l/m 5,3 km/h (1 Bft) N-NO 18 0 min 5 W/m 11,2 C 15,4 C 12,9 km/h (3 Bft)
04.07.2017 21:54 15,4 C 77 % 1019,0 hPa 0,0 l/m 5,5 km/h (2 Bft) NW 306 0 min 0 W/m 11,4 C 15,4 C 12,9 km/h (3 Bft)
04.07.2017 21:57 15,4 C 76 % 1019,0 hPa 0,0 l/m 3,5 km/h (1 Bft) NW 324 0 min 0 W/m 11,2 C 15,4 C 9,7 km/h (2 Bft)
04.07.2017 22:00 15,4 C 77 % 1019,1 hPa 0,0 l/m 3,6 km/h (1 Bft) N-NW 336 0 min 0 W/m 11,4 C 15,4 C 12,9 km/h (3 Bft)
04.07.2017 22:03 15,3 C 77 % 1019,0 hPa 0,0 l/m 3,4 km/h (1 Bft) N-NW 327 0 min 0 W/m 11,3 C 15,3 C 9,7 km/h (2 Bft)
04.07.2017 22:06 15,3 C 76 % 1019,1 hPa 0,0 l/m 3,5 km/h (1 Bft) NW 315 0 min 0 W/m 11,1 C 15,3 C 14,5 km/h (3 Bft)
04.07.2017 22:09 15,3 C 76 % 1019,0 hPa 0,0 l/m 5,8 km/h (2 Bft) W 269 0 min 0 W/m 11,1 C 15,3 C 12,9 km/h (3 Bft)
04.07.2017 22:12 15,3 C 76 % 1019,0 hPa 0,0 l/m 1,8 km/h (1 Bft) W 271 0 min 0 W/m 11,1 C 15,3 C 4,8 km/h (1 Bft)
04.07.2017 22:15 15,3 C 76 % 1019,0 hPa 0,0 l/m 6,2 km/h (2 Bft) N-NW 340 0 min 0 W/m 11,1 C 15,3 C 12,9 km/h (3 Bft)
04.07.2017 22:18 15,3 C 76 % 1019,0 hPa 0,0 l/m 4,1 km/h (1 Bft) NW 325 0 min 0 W/m 11,1 C 15,3 C 8,0 km/h (2 Bft)
04.07.2017 22:21 15,2 C 76 % 1019,0 hPa 0,0 l/m 6,7 km/h (2 Bft) W-NW 284 0 min 0 W/m 11,0 C 15,0 C 14,5 km/h (3 Bft)
04.07.2017 22:24 15,2 C 75 % 1019,1 hPa 0,0 l/m 3,8 km/h (1 Bft) W-NW 287 0 min 0 W/m 10,8 C 15,2 C 9,7 km/h (2 Bft)
04.07.2017 22:27 15,2 C 75 % 1019,0 hPa 0,0 l/m 4,4 km/h (1 Bft) NW 326 0 min 0 W/m 10,8 C 15,2 C 8,0 km/h (2 Bft)
04.07.2017 22:30 15,2 C 75 % 1019,0 hPa 0,0 l/m 5,4 km/h (2 Bft) NW 306 0 min 0 W/m 10,8 C 15,2 C 12,9 km/h (3 Bft)
04.07.2017 22:33 15,1 C 76 % 1019,0 hPa 0,0 l/m 4,0 km/h (1 Bft) W 280 0 min 0 W/m 10,9 C 15,1 C 9,7 km/h (2 Bft)
04.07.2017 22:36 15,1 C 76 % 1019,0 hPa 0,0 l/m 3,8 km/h (1 Bft) NW 313 0 min 0 W/m 10,9 C 15,1 C 8,0 km/h (2 Bft)
04.07.2017 22:39 15,1 C 76 % 1018,9 hPa 0,0 l/m 3,3 km/h (1 Bft) N-NW 344 0 min 0 W/m 10,9 C 15,1 C 6,4 km/h (2 Bft)
04.07.2017 22:42 15,2 C 76 % 1018,9 hPa 0,0 l/m 3,2 km/h (1 Bft) NW 321 0 min 0 W/m 11,0 C 15,2 C 6,4 km/h (2 Bft)
04.07.2017 22:45 15,2 C 76 % 1018,9 hPa 0,0 l/m 3,6 km/h (1 Bft) NW 317 0 min 0 W/m 11,0 C 15,2 C 9,7 km/h (2 Bft)
04.07.2017 22:48 15,2 C 77 % 1018,8 hPa 0,0 l/m 3,8 km/h (1 Bft) N-NW 333 0 min 0 W/m 11,2 C 15,2 C 6,4 km/h (2 Bft)
04.07.2017 22:51 15,2 C 77 % 1018,8 hPa 0,0 l/m 3,4 km/h (1 Bft) N-NW 331 0 min 0 W/m 11,2 C 15,2 C 8,0 km/h (2 Bft)
04.07.2017 22:54 15,2 C 77 % 1018,8 hPa 0,0 l/m 2,2 km/h (1 Bft) W-NW 282 0 min 0 W/m 11,2 C 15,2 C 6,4 km/h (2 Bft)
04.07.2017 22:57 15,2 C 77 % 1018,8 hPa 0,0 l/m 4,0 km/h (1 Bft) NW 317 0 min 0 W/m 11,2 C 15,2 C 8,0 km/h (2 Bft)
04.07.2017 23:00 15,2 C 77 % 1018,7 hPa 0,0 l/m 4,1 km/h (1 Bft) W-NW 292 0 min 0 W/m 11,2 C 15,2 C 6,4 km/h (2 Bft)
04.07.2017 23:03 15,2 C 77 % 1018,7 hPa 0,0 l/m 1,6 km/h (1 Bft) W-NW 303 0 min 0 W/m 11,2 C 15,2 C 6,4 km/h (2 Bft)
04.07.2017 23:06 15,2 C 77 % 1018,7 hPa 0,0 l/m 4,4 km/h (1 Bft) N-NW 342 0 min 0 W/m 11,2 C 15,2 C 8,0 km/h (2 Bft)
04.07.2017 23:09 15,2 C 78 % 1018,6 hPa 0,0 l/m 3,0 km/h (1 Bft) N-NW 342 0 min 0 W/m 11,4 C 15,2 C 6,4 km/h (2 Bft)
04.07.2017 23:12 15,2 C 78 % 1018,6 hPa 0,0 l/m 3,1 km/h (1 Bft) N-NW 327 0 min 0 W/m 11,4 C 15,2 C 6,4 km/h (2 Bft)
04.07.2017 23:15 15,1 C 78 % 1018,7 hPa 0,0 l/m 2,8 km/h (1 Bft) NW 304 0 min 0 W/m 11,3 C 15,1 C 6,4 km/h (2 Bft)
04.07.2017 23:18 15,1 C 78 % 1018,7 hPa 0,0 l/m 2,9 km/h (1 Bft) NW 323 0 min 0 W/m 11,3 C 15,1 C 8,0 km/h (2 Bft)
04.07.2017 23:21 15,1 C 77 % 1018,7 hPa 0,0 l/m 2,3 km/h (1 Bft) NW 323 0 min 0 W/m 11,1 C 15,1 C 6,4 km/h (2 Bft)
04.07.2017 23:24 15,1 C 77 % 1018,7 hPa 0,0 l/m 4,6 km/h (1 Bft) NW 319 0 min 0 W/m 11,1 C 15,1 C 8,0 km/h (2 Bft)
04.07.2017 23:27 15,1 C 78 % 1018,7 hPa 0,0 l/m 1,6 km/h (1 Bft) NW 319 0 min 0 W/m 11,3 C 15,1 C 3,2 km/h (1 Bft)
04.07.2017 23:30 15,1 C 78 % 1018,8 hPa 0,0 l/m 3,5 km/h (1 Bft) NW 315 0 min 0 W/m 11,3 C 15,1 C 6,4 km/h (2 Bft)
04.07.2017 23:33 15,1 C 78 % 1018,8 hPa 0,0 l/m 2,6 km/h (1 Bft) NW 315 0 min 0 W/m 11,3 C 15,1 C 4,8 km/h (1 Bft)
04.07.2017 23:36 15,1 C 78 % 1018,8 hPa 0,0 l/m 5,6 km/h (2 Bft) N 355 0 min 0 W/m 11,3 C 15,1 C 12,9 km/h (3 Bft)
04.07.2017 23:39 15,1 C 78 % 1018,8 hPa 0,0 l/m 4,2 km/h (1 Bft) N-NW 337 0 min 0 W/m 11,3 C 15,1 C 9,7 km/h (2 Bft)
04.07.2017 23:42 15,1 C 78 % 1018,9 hPa 0,0 l/m 4,6 km/h (1 Bft) W-NW 302 0 min 0 W/m 11,3 C 15,1 C 8,0 km/h (2 Bft)
04.07.2017 23:45 15,0 C 78 % 1018,9 hPa 0,0 l/m 3,3 km/h (1 Bft) N-NW 327 0 min 0 W/m 11,2 C 15,0 C 6,4 km/h (2 Bft)
04.07.2017 23:48 14,9 C 78 % 1018,9 hPa 0,0 l/m 3,1 km/h (1 Bft) W-NW 288 0 min 0 W/m 11,1 C 14,9 C 8,0 km/h (2 Bft)
04.07.2017 23:51 15,0 C 77 % 1018,9 hPa 0,0 l/m 3,4 km/h (1 Bft) NW 326 0 min 0 W/m 11,0 C 15,0 C 11,3 km/h (2 Bft)
04.07.2017 23:54 15,0 C 77 % 1018,9 hPa 0,0 l/m 3,6 km/h (1 Bft) W-NW 289 0 min 0 W/m 11,0 C 15,0 C 8,0 km/h (2 Bft)
04.07.2017 23:57 15,0 C 77 % 1018,9 hPa 0,0 l/m 3,5 km/h (1 Bft) N-NW 334 0 min 0 W/m 11,0 C 15,0 C 11,3 km/h (2 Bft)
_ Min-Zeit 04:15 16:00 00:00 - 23:03 - - - - 07:15 01:12 23:27
Minimum _ 13,1 C 61 % 1015,4 hPa - 1,6 km/h (1 Bft) - - - - 9,4 C 10,4 C 3,2 km/h (1 Bft)
_ Max-Zeit 16:00 00:39 15:21 00:09 14:12 - - 08:27 13:06 00:09 16:06 00:06
Maximum _ 19,3 C 90 % 1019,6 hPa 1,2 l/m 18,1 km/h
W-NW (3 Bft)
- - 3 min 1162 W/m 13,3 C 19,0 C 33,8 km/h
NW (5 Bft)
Durchschnitt _ 15,9 C 73 % 1018,0 hPa #1,2 l/m 9,1 km/h (2 Bft) W - #5:57 h 306 W/m 11,1 C 14,5 C 18,5 km/h (3 Bft)
2017 Cux-Wetter.de -Die Nutzung der Wetterdaten nur mit ausdrcklicher Genehmigung